Observation data for Mertzon on 03/13/2018      Previous  Date  Next       Current Mesonet Observations  Soil Data  Daily Summary Page  Observations in Plain Language
KME1 130500Z 00000KT 02/M05 A3026 RMK A01 T00161045  RH  064%=      5-min Rain = 0
KME1 130501Z 20000KT 02/M04 A3026 RMK A01 T00161044  RH  064%=      5-min Rain = 0
KME1 130502Z 20000KT 02/M04 A3026 RMK A01 T00161044  RH  064%=      5-min Rain = 0
KME1 130503Z 19001KT 02/M05 A3026 RMK A01 T00161045  RH  064%=      5-min Rain = 0
KME1 130504Z 18001KT 02/M05 A3026 RMK A01 T00151046  RH  064%=      5-min Rain = 0
KME1 130505Z 18001KT 02/M05 A3026 RMK A01 T00151046  RH  064%=      5-min Rain = 0
KME1 130506Z 18001KT 02/M05 A3026 RMK A01 T00151045  RH  064%=      5-min Rain = 0
KME1 130507Z 17001KT 01/M05 A3026 RMK A01 T00141045  RH  065%=      5-min Rain = 0
KME1 130508Z 18001KT 01/M05 A3026 RMK A01 T00141046  RH  064%=      5-min Rain = 0
KME1 130509Z 18001KT 01/M05 A3026 RMK A01 T00131049  RH  064%=      5-min Rain = 0
KME1 130510Z 19001KT 01/M05 A3026 RMK A01 T00111050  RH  063%=      5-min Rain = 0
KME1 130511Z 19002KT 01/M05 A3026 RMK A01 T00101052  RH  063%=      5-min Rain = 0
KME1 130512Z 19003KT 01/M05 A3026 RMK A01 T00091053  RH  064%=      5-min Rain = 0
KME1 130513Z 19002KT 01/M05 A3026 RMK A01 T00081053  RH  064%=      5-min Rain = 0
KME1 130514Z 19002KT 01/M05 A3026 RMK A01 T00081052  RH  064%=      5-min Rain = 0
KME1 130515Z 19002KT 01/M05 A3026 RMK A01 T00071052  RH  064%=      5-min Rain = 0
KME1 130516Z 20002KT 01/M05 A3025 RMK A01 T00071051  RH  065%=      5-min Rain = 0
KME1 130517Z 20002KT 01/M05 A3025 RMK A01 T00071049  RH  066%=      5-min Rain = 0
KME1 130518Z 20002KT 01/M05 A3026 RMK A01 T00081047  RH  067%=      5-min Rain = 0
KME1 130519Z 19001KT 01/M05 A3026 RMK A01 T00091046  RH  067%=      5-min Rain = 0
KME1 130520Z 20001KT 01/M05 A3026 RMK A01 T00091045  RH  067%=      5-min Rain = 0
KME1 130521Z 20001KT 01/M05 A3026 RMK A01 T00081045  RH  067%=      5-min Rain = 0
KME1 130522Z 20001KT 01/M05 A3026 RMK A01 T00081045  RH  067%=      5-min Rain = 0
KME1 130523Z 20000KT 01/M05 A3026 RMK A01 T00081045  RH  067%=      5-min Rain = 0
KME1 130524Z 00000KT 01/M05 A3026 RMK A01 T00081045  RH  067%=      5-min Rain = 0
KME1 130525Z 00000KT 01/M05 A3025 RMK A01 T00081046  RH  067%=      5-min Rain = 0
KME1 130526Z 31000KT 01/M05 A3025 RMK A01 T00081046  RH  067%=      5-min Rain = 0
KME1 130527Z 31000KT 01/M05 A3025 RMK A01 T00071046  RH  067%=      5-min Rain = 0
KME1 130528Z 00000KT 01/M05 A3025 RMK A01 T00071046  RH  068%=      5-min Rain = 0
KME1 130529Z 32000KT 01/M05 A3025 RMK A01 T00061046  RH  068%=      5-min Rain = 0
KME1 130530Z 32000KT 01/M05 A3025 RMK A01 T00071045  RH  068%=      5-min Rain = 0
KME1 130531Z 32001KT 01/M05 A3025 RMK A01 T00061045  RH  068%=      5-min Rain = 0
KME1 130532Z 33001KT 01/M04 A3025 RMK A01 T00071044  RH  069%=      5-min Rain = 0
KME1 130533Z 33001KT 01/M04 A3025 RMK A01 T00061044  RH  069%=      5-min Rain = 0
KME1 130534Z 34001KT 01/M04 A3025 RMK A01 T00071044  RH  069%=      5-min Rain = 0
KME1 130535Z 35002KT 01/M04 A3025 RMK A01 T00071044  RH  069%=      5-min Rain = 0
KME1 130536Z 35001KT 01/M04 A3025 RMK A01 T00071043  RH  069%=      5-min Rain = 0
KME1 130537Z 35002KT 01/M04 A3025 RMK A01 T00081043  RH  069%=      5-min Rain = 0
KME1 130538Z 33003KT 01/M04 A3025 RMK A01 T00091042  RH  069%=      5-min Rain = 0
KME1 130539Z 33003KT 01/M04 A3025 RMK A01 T00101042  RH  068%=      5-min Rain = 0
KME1 130540Z 32003KT 01/M04 A3025 RMK A01 T00111042  RH  068%=      5-min Rain = 0
KME1 130541Z 32004KT 01/M04 A3025 RMK A01 T00111043  RH  068%=      5-min Rain = 0
KME1 130542Z 32004KT 01/M04 A3025 RMK A01 T00101044  RH  067%=      5-min Rain = 0
KME1 130543Z 31004KT 01/M04 A3025 RMK A01 T00101044  RH  067%=      5-min Rain = 0
KME1 130544Z 30003KT 01/M04 A3025 RMK A01 T00091044  RH  068%=      5-min Rain = 0
KME1 130545Z 28001KT 01/M05 A3025 RMK A01 T00081045  RH  068%=      5-min Rain = 0
KME1 130546Z 26001KT 01/M05 A3025 RMK A01 T00061046  RH  068%=      5-min Rain = 0
KME1 130547Z 18002KT 00/M05 A3025 RMK A01 T00041048  RH  068%=      5-min Rain = 0
KME1 130548Z 18002KT 00/M05 A3025 RMK A01 T00021049  RH  069%=      5-min Rain = 0
KME1 130549Z 18003KT 00/05 A3025 RMK A01 T00000-49  RH  069%=      5-min Rain = 0
KME1 130550Z 17003KT M00/M05 A3025 RMK A01 T10011049  RH  070%=      5-min Rain = 0
KME1 130551Z 17003KT M00/M05 A3025 RMK A01 T10011049  RH  070%=      5-min Rain = 0
KME1 130552Z 17004KT M00/M05 A3025 RMK A01 T10011047  RH  071%=      5-min Rain = 0
KME1 130553Z 17004KT 00/05 A3025 RMK A01 T00000-47  RH  070%=      5-min Rain = 0
KME1 130554Z 17003KT 00/M05 A3025 RMK A01 T00011048  RH  070%=      5-min Rain = 0
KME1 130555Z 17001KT 00/M05 A3025 RMK A01 T00011049  RH  070%=      5-min Rain = 0
KME1 130556Z 19001KT 00/M05 A3025 RMK A01 T00011049  RH  070%=      5-min Rain = 0
KME1 130557Z 21001KT 00/M05 A3025 RMK A01 T00011048  RH  070%=      5-min Rain = 0
KME1 130558Z 22001KT 00/M05 A3025 RMK A01 T00021047  RH  069%=      5-min Rain = 0
KME1 130559Z 23001KT 00/M05 A3025 RMK A01 T00031047  RH  069%=      5-min Rain = 0
KME1 130600Z 22001KT 00/M05 A3025 RMK A01 T00041046  RH  069%=      5-min Rain = 0
KME1 130601Z 20002KT 01/M05 A3025 RMK A01 T00051047  RH  068%=      5-min Rain = 0
KME1 130602Z 20003KT 01/M05 A3025 RMK A01 T00051047  RH  068%=      5-min Rain = 0
KME1 130603Z 20002KT 01/M05 A3025 RMK A01 T00061046  RH  068%=      5-min Rain = 0
KME1 130604Z 23002KT 01/M05 A3025 RMK A01 T00071047  RH  067%=      5-min Rain = 0
KME1 130605Z 24002KT 01/M05 A3025 RMK A01 T00061047  RH  067%=      5-min Rain = 0
KME1 130606Z 23001KT 01/M05 A3025 RMK A01 T00071046  RH  068%=      5-min Rain = 0
KME1 130607Z 23001KT 01/M05 A3025 RMK A01 T00071046  RH  068%=      5-min Rain = 0
KME1 130608Z 23001KT 01/M05 A3025 RMK A01 T00071046  RH  068%=      5-min Rain = 0
KME1 130609Z 21002KT 01/M05 A3025 RMK A01 T00071046  RH  067%=      5-min Rain = 0
KME1 130610Z 20003KT 01/M05 A3025 RMK A01 T00061047  RH  067%=      5-min Rain = 0
KME1 130611Z 21002KT 01/M05 A3025 RMK A01 T00051048  RH  067%=      5-min Rain = 0
KME1 130612Z 22001KT 01/M05 A3025 RMK A01 T00051048  RH  068%=      5-min Rain = 0
KME1 130613Z 20001KT 01/M05 A3025 RMK A01 T00051047  RH  068%=      5-min Rain = 0
KME1 130614Z 20001KT 01/M05 A3025 RMK A01 T00051047  RH  068%=      5-min Rain = 0
KME1 130615Z 19002KT 00/M05 A3025 RMK A01 T00041046  RH  069%=      5-min Rain = 0
KME1 130616Z 18005KT 00/M05 A3025 RMK A01 T00031049  RH  068%=      5-min Rain = 0
KME1 130617Z 17004KT 00/M05 A3025 RMK A01 T00011052  RH  068%=      5-min Rain = 0
KME1 130618Z 17002KT M00/M05 A3025 RMK A01 T10011053  RH  068%=      5-min Rain = 0
KME1 130619Z 18002KT M00/M05 A3025 RMK A01 T10021052  RH  069%=      5-min Rain = 0
KME1 130620Z 19002KT M00/M05 A3025 RMK A01 T10021050  RH  070%=      5-min Rain = 0
KME1 130621Z 19001KT M00/M05 A3025 RMK A01 T10011049  RH  070%=      5-min Rain = 0
KME1 130622Z 20001KT 00/M05 A3025 RMK A01 T00011047  RH  070%=      5-min Rain = 0
KME1 130623Z 20001KT 00/M05 A3025 RMK A01 T00021046  RH  070%=      5-min Rain = 0
KME1 130624Z 20001KT 00/M05 A3025 RMK A01 T00031045  RH  070%=      5-min Rain = 0
KME1 130625Z 20001KT 00/M05 A3025 RMK A01 T00041045  RH  070%=      5-min Rain = 0
KME1 130626Z 19000KT 00/M05 A3025 RMK A01 T00041045  RH  070%=      5-min Rain = 0
KME1 130627Z 00000KT 00/M05 A3025 RMK A01 T00041045  RH  070%=      5-min Rain = 0
KME1 130628Z 00000KT 00/M05 A3025 RMK A01 T00041045  RH  070%=      5-min Rain = 0
KME1 130629Z 00000KT 00/M05 A3025 RMK A01 T00041045  RH  070%=      5-min Rain = 0
KME1 130630Z 00000KT 00/M05 A3025 RMK A01 T00041045  RH  070%=      5-min Rain = 0
KME1 130631Z 00000KT 00/M05 A3025 RMK A01 T00041045  RH  070%=      5-min Rain = 0
KME1 130632Z 00000KT 00/M05 A3025 RMK A01 T00031045  RH  070%=      5-min Rain = 0
KME1 130633Z 00000KT 00/M05 A3025 RMK A01 T00021045  RH  071%=      5-min Rain = 0
KME1 130634Z 00000KT 00/M05 A3025 RMK A01 T00021045  RH  071%=      5-min Rain = 0
KME1 130635Z 34000KT 00/M05 A3025 RMK A01 T00011045  RH  071%=      5-min Rain = 0
KME1 130636Z 36002KT 00/M05 A3025 RMK A01 T00011045  RH  071%=      5-min Rain = 0
KME1 130637Z 01003KT 00/M04 A3025 RMK A01 T00011044  RH  071%=      5-min Rain = 0
KME1 130638Z 01002KT 00/M04 A3025 RMK A01 T00021044  RH  071%=      5-min Rain = 0
KME1 130639Z 01000KT 00/M04 A3025 RMK A01 T00011044  RH  072%=      5-min Rain = 0
KME1 130640Z 01000KT 00/M05 A3025 RMK A01 T00011045  RH  071%=      5-min Rain = 0
KME1 130641Z 01001KT 00/M05 A3025 RMK A01 T00011045  RH  071%=      5-min Rain = 0
KME1 130642Z 01001KT 00/M05 A3025 RMK A01 T00011045  RH  071%=      5-min Rain = 0
KME1 130643Z 01001KT 00/05 A3025 RMK A01 T00000-45  RH  071%=      5-min Rain = 0
KME1 130644Z 01001KT 00/05 A3025 RMK A01 T00-00-46  RH  071%=      5-min Rain = 0
KME1 130645Z 01000KT M00/M05 A3025 RMK A01 T10011046  RH  071%=      5-min Rain = 0
KME1 130646Z 00000KT M00/M05 A3025 RMK A01 T10011046  RH  072%=      5-min Rain = 0
KME1 130647Z 00000KT M00/M05 A3025 RMK A01 T10011046  RH  072%=      5-min Rain = 0
KME1 130648Z 02001KT M00/M05 A3025 RMK A01 T10011046  RH  072%=      5-min Rain = 0
KME1 130649Z 02001KT M00/M05 A3025 RMK A01 T10011046  RH  072%=      5-min Rain = 0
KME1 130650Z 00000KT M00/M05 A3025 RMK A01 T10011046  RH  072%=      5-min Rain = 0
KME1 130651Z 00000KT M00/M05 A3025 RMK A01 T10011046  RH  072%=      5-min Rain = 0
KME1 130652Z 00000KT M00/M05 A3025 RMK A01 T10011046  RH  072%=      5-min Rain = 0
KME1 130653Z 00000KT M00/M05 A3025 RMK A01 T10011046  RH  072%=      5-min Rain = 0
KME1 130654Z 02000KT 00/05 A3025 RMK A01 T00-00-45  RH  072%=      5-min Rain = 0
KME1 130655Z 04001KT 00/05 A3025 RMK A01 T00000-45  RH  072%=      5-min Rain = 0
KME1 130656Z 19001KT 00/05 A3025 RMK A01 T00000-45  RH  071%=      5-min Rain = 0
KME1 130657Z 20001KT 00/M05 A3025 RMK A01 T00011045  RH  071%=      5-min Rain = 0
KME1 130658Z 20001KT 00/M04 A3025 RMK A01 T00021044  RH  071%=      5-min Rain = 0
KME1 130659Z 21001KT 00/M04 A3025 RMK A01 T00031044  RH  071%=      5-min Rain = 0
KME1 130700Z 21001KT 00/M04 A3025 RMK A01 T00041044  RH  070%=      5-min Rain = 0
KME1 130701Z 21000KT 00/M04 A3025 RMK A01 T00041044  RH  070%=      5-min Rain = 0
KME1 130702Z 00000KT 01/M04 A3025 RMK A01 T00051044  RH  070%=      5-min Rain = 0
KME1 130703Z 00000KT 01/M04 A3025 RMK A01 T00051044  RH  070%=      5-min Rain = 0
KME1 130704Z 19000KT 00/M04 A3025 RMK A01 T00041044  RH  070%=      5-min Rain = 0
KME1 130705Z 19001KT 00/M05 A3025 RMK A01 T00041045  RH  070%=      5-min Rain = 0
KME1 130706Z 19001KT 00/M05 A3025 RMK A01 T00031045  RH  070%=      5-min Rain = 0
KME1 130707Z 19001KT 00/M05 A3025 RMK A01 T00011048  RH  070%=      5-min Rain = 0
KME1 130708Z 19000KT M00/M05 A3025 RMK A01 T10021051  RH  070%=      5-min Rain = 0
KME1 130709Z 18000KT M00/M05 A3025 RMK A01 T10041050  RH  071%=      5-min Rain = 0
KME1 130710Z 18001KT M00/M05 A3025 RMK A01 T10041049  RH  072%=      5-min Rain = 0
KME1 130711Z 18001KT M01/M05 A3025 RMK A01 T10051050  RH  072%=      5-min Rain = 0
KME1 130712Z 18000KT M01/M05 A3025 RMK A01 T10051050  RH  072%=      5-min Rain = 0
KME1 130713Z 00000KT M01/M05 A3025 RMK A01 T10061050  RH  072%=      5-min Rain = 0
KME1 130714Z 00000KT M01/M05 A3025 RMK A01 T10061049  RH  073%=      5-min Rain = 0
KME1 130715Z 00000KT M01/M05 A3025 RMK A01 T10061049  RH  073%=      5-min Rain = 0
KME1 130716Z 00000KT M01/M05 A3025 RMK A01 T10061048  RH  073%=      5-min Rain = 0
KME1 130717Z 00000KT M01/M05 A3025 RMK A01 T10061048  RH  073%=      5-min Rain = 0
KME1 130718Z 00000KT M01/M05 A3025 RMK A01 T10061048  RH  073%=      5-min Rain = 0
KME1 130719Z 00000KT M01/M05 A3025 RMK A01 T10071048  RH  073%=      5-min Rain = 0
KME1 130720Z 00000KT M01/M05 A3025 RMK A01 T10071049  RH  073%=      5-min Rain = 0
KME1 130721Z 15001KT M01/M05 A3024 RMK A01 T10071049  RH  073%=      5-min Rain = 0
KME1 130722Z 18001KT M01/M05 A3024 RMK A01 T10081049  RH  074%=      5-min Rain = 0
KME1 130723Z 19001KT M01/M05 A3024 RMK A01 T10081049  RH  074%=      5-min Rain = 0
KME1 130724Z 19002KT M01/M05 A3024 RMK A01 T10081049  RH  074%=      5-min Rain = 0
KME1 130725Z 20001KT M01/M05 A3024 RMK A01 T10081049  RH  074%=      5-min Rain = 0
KME1 130726Z 20001KT M01/M05 A3024 RMK A01 T10081049  RH  074%=      5-min Rain = 0
KME1 130727Z 20000KT M01/M05 A3024 RMK A01 T10081049  RH  074%=      5-min Rain = 0
KME1 130728Z 20001KT M01/M05 A3024 RMK A01 T10081049  RH  074%=      5-min Rain = 0
KME1 130729Z 21001KT M01/M05 A3024 RMK A01 T10081047  RH  074%=      5-min Rain = 0
KME1 130730Z 21002KT M01/M05 A3024 RMK A01 T10071047  RH  075%=      5-min Rain = 0
KME1 130731Z 21001KT M01/M05 A3024 RMK A01 T10071047  RH  074%=      5-min Rain = 0
KME1 130732Z 21001KT M01/M05 A3024 RMK A01 T10061047  RH  074%=      5-min Rain = 0
KME1 130733Z 20002KT M01/M05 A3024 RMK A01 T10061047  RH  074%=      5-min Rain = 0
KME1 130734Z 20001KT M01/M05 A3024 RMK A01 T10061047  RH  074%=      5-min Rain = 0
KME1 130735Z 20001KT M01/M05 A3024 RMK A01 T10061048  RH  073%=      5-min Rain = 0
KME1 130736Z 20002KT M01/M05 A3024 RMK A01 T10061048  RH  073%=      5-min Rain = 0
KME1 130737Z 20000KT M01/M05 A3024 RMK A01 T10071049  RH  073%=      5-min Rain = 0
KME1 130738Z 20001KT M01/M05 A3024 RMK A01 T10071050  RH  073%=      5-min Rain = 0
KME1 130739Z 20000KT M01/M05 A3024 RMK A01 T10081051  RH  073%=      5-min Rain = 0
KME1 130740Z 20000KT M01/M05 A3024 RMK A01 T10081052  RH  072%=      5-min Rain = 0
KME1 130741Z 20000KT M01/M05 A3024 RMK A01 T10091053  RH  072%=      5-min Rain = 0
KME1 130742Z 00000KT M01/M05 A3024 RMK A01 T10091054  RH  072%=      5-min Rain = 0
KME1 130743Z 20001KT M01/M05 A3024 RMK A01 T10111054  RH  072%=      5-min Rain = 0
KME1 130744Z 19001KT M01/M05 A3024 RMK A01 T10111054  RH  073%=      5-min Rain = 0
KME1 130745Z 18002KT M01/M06 A3024 RMK A01 T10121055  RH  073%=      5-min Rain = 0
KME1 130746Z 19002KT M01/M05 A3024 RMK A01 T10121054  RH  073%=      5-min Rain = 0
KME1 130747Z 18002KT M01/M05 A3024 RMK A01 T10121054  RH  073%=      5-min Rain = 0
KME1 130748Z 18002KT M01/M05 A3024 RMK A01 T10131054  RH  073%=      5-min Rain = 0
KME1 130749Z 18002KT M01/M05 A3024 RMK A01 T10131054  RH  073%=      5-min Rain = 0
KME1 130750Z 19002KT M01/M05 A3024 RMK A01 T10131054  RH  073%=      5-min Rain = 0
KME1 130751Z 19002KT M01/M06 A3024 RMK A01 T10131055  RH  073%=      5-min Rain = 0
KME1 130752Z 18002KT M01/M06 A3024 RMK A01 T10131055  RH  073%=      5-min Rain = 0
KME1 130753Z 19002KT M01/M06 A3024 RMK A01 T10131055  RH  073%=      5-min Rain = 0
KME1 130754Z 19001KT M01/M06 A3024 RMK A01 T10131055  RH  073%=      5-min Rain = 0
KME1 130755Z 19000KT M01/M05 A3024 RMK A01 T10131054  RH  074%=      5-min Rain = 0
KME1 130756Z 19001KT M01/M05 A3024 RMK A01 T10131054  RH  074%=      5-min Rain = 0
KME1 130757Z 19000KT M01/M05 A3024 RMK A01 T10131053  RH  074%=      5-min Rain = 0
KME1 130758Z 19000KT M01/M05 A3024 RMK A01 T10131053  RH  074%=      5-min Rain = 0
KME1 130759Z 19000KT M01/M05 A3024 RMK A01 T10131053  RH  074%=      5-min Rain = 0
KME1 130800Z 00000KT M01/M05 A3023 RMK A01 T10141054  RH  074%=      5-min Rain = 0
KME1 130801Z 03001KT M02/M06 A3023 RMK A01 T10151056  RH  074%=      5-min Rain = 0
KME1 130802Z 03000KT M02/M06 A3023 RMK A01 T10161055  RH  075%=      5-min Rain = 0
KME1 130803Z 03000KT M02/M05 A3023 RMK A01 T10161054  RH  075%=      5-min Rain = 0
KME1 130804Z 03001KT M02/M05 A3024 RMK A01 T10161054  RH  076%=      5-min Rain = 0
KME1 130805Z 19000KT M02/M05 A3024 RMK A01 T10171053  RH  076%=      5-min Rain = 0
KME1 130806Z 00000KT M02/M05 A3024 RMK A01 T10171052  RH  077%=      5-min Rain = 0
KME1 130807Z 00000KT M02/M05 A3024 RMK A01 T10171052  RH  077%=      5-min Rain = 0
KME1 130808Z 19000KT M02/M05 A3024 RMK A01 T10161051  RH  077%=      5-min Rain = 0
KME1 130809Z 19001KT M02/M05 A3024 RMK A01 T10151050  RH  077%=      5-min Rain = 0
KME1 130810Z 19000KT M02/M05 A3024 RMK A01 T10151049  RH  077%=      5-min Rain = 0
KME1 130811Z 00000KT M01/M05 A3024 RMK A01 T10141049  RH  077%=      5-min Rain = 0
KME1 130812Z 21000KT M01/M05 A3024 RMK A01 T10131049  RH  077%=      5-min Rain = 0
KME1 130813Z 22001KT M01/M05 A3024 RMK A01 T10121048  RH  077%=      5-min Rain = 0
KME1 130814Z 22001KT M01/M05 A3023 RMK A01 T10111047  RH  076%=      5-min Rain = 0
KME1 130815Z 20001KT M01/M05 A3023 RMK A01 T10101047  RH  075%=      5-min Rain = 0
KME1 130816Z 19001KT M01/M05 A3023 RMK A01 T10091048  RH  075%=      5-min Rain = 0
KME1 130817Z 19000KT M01/M05 A3023 RMK A01 T10091048  RH  075%=      5-min Rain = 0
KME1 130818Z 18001KT M01/M05 A3023 RMK A01 T10091048  RH  075%=      5-min Rain = 0
KME1 130819Z 17001KT M01/M05 A3023 RMK A01 T10091049  RH  074%=      5-min Rain = 0
KME1 130820Z 17002KT M01/M05 A3023 RMK A01 T10111052  RH  074%=      5-min Rain = 0
KME1 130821Z 17002KT M01/M05 A3023 RMK A01 T10131053  RH  074%=      5-min Rain = 0
KME1 130822Z 17002KT M01/M05 A3023 RMK A01 T10141053  RH  075%=      5-min Rain = 0
KME1 130823Z 18002KT M01/M05 A3023 RMK A01 T10141053  RH  075%=      5-min Rain = 0
KME1 130824Z 18001KT M02/M05 A3023 RMK A01 T10151052  RH  075%=      5-min Rain = 0
KME1 130825Z 19001KT M02/M05 A3023 RMK A01 T10151052  RH  076%=      5-min Rain = 0
KME1 130826Z 19001KT M02/M05 A3023 RMK A01 T10151051  RH  076%=      5-min Rain = 0
KME1 130827Z 19001KT M02/M05 A3023 RMK A01 T10151051  RH  077%=      5-min Rain = 0
KME1 130828Z 19001KT M02/M05 A3023 RMK A01 T10151050  RH  077%=      5-min Rain = 0
KME1 130829Z 19002KT M02/M05 A3023 RMK A01 T10151049  RH  077%=      5-min Rain = 0
KME1 130830Z 19002KT M01/M05 A3023 RMK A01 T10141049  RH  077%=      5-min Rain = 0
KME1 130831Z 19003KT M01/M05 A3023 RMK A01 T10141048  RH  077%=      5-min Rain = 0
KME1 130832Z 19003KT M01/M05 A3023 RMK A01 T10131048  RH  077%=      5-min Rain = 0
KME1 130833Z 19003KT M01/M05 A3023 RMK A01 T10131050  RH  076%=      5-min Rain = 0
KME1 130834Z 19004KT M01/M05 A3023 RMK A01 T10131051  RH  075%=      5-min Rain = 0
KME1 130835Z 19004KT M01/M05 A3023 RMK A01 T10141053  RH  075%=      5-min Rain = 0
KME1 130836Z 19005KT M02/M05 A3023 RMK A01 T10151054  RH  075%=      5-min Rain = 0
KME1 130837Z 19005KT M02/M06 A3023 RMK A01 T10161055  RH  075%=      5-min Rain = 0
KME1 130838Z 19005KT M02/M06 A3023 RMK A01 T10161055  RH  075%=      5-min Rain = 0
KME1 130839Z 20004KT M02/M06 A3023 RMK A01 T10171055  RH  075%=      5-min Rain = 0
KME1 130840Z 20004KT M02/M05 A3023 RMK A01 T10171054  RH  076%=      5-min Rain = 0
KME1 130841Z 20003KT M02/M05 A3023 RMK A01 T10171053  RH  076%=      5-min Rain = 0
KME1 130842Z 20003KT M02/M05 A3023 RMK A01 T10171053  RH  077%=      5-min Rain = 0
KME1 130843Z 20003KT M02/M05 A3023 RMK A01 T10171052  RH  077%=      5-min Rain = 0
KME1 130844Z 20003KT M02/M05 A3023 RMK A01 T10161051  RH  077%=      5-min Rain = 0
KME1 130845Z 20003KT M02/M05 A3023 RMK A01 T10151049  RH  078%=      5-min Rain = 0
KME1 130846Z 20003KT M01/M05 A3023 RMK A01 T10141048  RH  078%=      5-min Rain = 0
KME1 130847Z 20004KT M01/M05 A3023 RMK A01 T10131048  RH  077%=      5-min Rain = 0
KME1 130848Z 20003KT M01/M05 A3023 RMK A01 T10121047  RH  077%=      5-min Rain = 0
KME1 130849Z 20003KT M01/M05 A3022 RMK A01 T10101046  RH  077%=      5-min Rain = 0
KME1 130850Z 20002KT M01/M05 A3022 RMK A01 T10091046  RH  076%=      5-min Rain = 0
KME1 130851Z 21002KT M01/M05 A3022 RMK A01 T10081045  RH  076%=      5-min Rain = 0
KME1 130852Z 23001KT M01/M05 A3022 RMK A01 T10071045  RH  075%=      5-min Rain = 0
KME1 130853Z 27001KT M01/M05 A3022 RMK A01 T10081047  RH  075%=      5-min Rain = 0
KME1 130854Z 34001KT M01/M05 A3022 RMK A01 T10101049  RH  075%=      5-min Rain = 0
KME1 130855Z 32000KT M01/M05 A3022 RMK A01 T10111050  RH  075%=      5-min Rain = 0
KME1 130856Z 35001KT M01/M05 A3022 RMK A01 T10121050  RH  075%=      5-min Rain = 0
KME1 130857Z 00000KT M01/M05 A3022 RMK A01 T10131050  RH  076%=      5-min Rain = 0
KME1 130858Z 00000KT M01/M05 A3022 RMK A01 T10141051  RH  076%=      5-min Rain = 0
KME1 130859Z 00000KT M02/M05 A3022 RMK A01 T10151050  RH  077%=      5-min Rain = 0
KME1 130900Z 00000KT M02/M05 A3022 RMK A01 T10151050  RH  077%=      5-min Rain = 0
KME1 130901Z 00000KT M02/M05 A3022 RMK A01 T10151050  RH  077%=      5-min Rain = 0
KME1 130902Z 00000KT M02/M05 A3022 RMK A01 T10151049  RH  078%=      5-min Rain = 0
KME1 130903Z 21000KT M02/M05 A3022 RMK A01 T10151049  RH  078%=      5-min Rain = 0
KME1 130904Z 21000KT M02/M05 A3022 RMK A01 T10151049  RH  078%=      5-min Rain = 0
KME1 130905Z 21001KT M01/M05 A3022 RMK A01 T10141048  RH  078%=      5-min Rain = 0
KME1 130906Z 21001KT M01/M05 A3022 RMK A01 T10141048  RH  078%=      5-min Rain = 0
KME1 130907Z 21000KT M01/M05 A3022 RMK A01 T10141048  RH  077%=      5-min Rain = 0
KME1 130908Z 21001KT M01/M05 A3022 RMK A01 T10141049  RH  077%=      5-min Rain = 0
KME1 130909Z 21001KT M01/M05 A3022 RMK A01 T10141049  RH  077%=      5-min Rain = 0
KME1 130910Z 21000KT M01/M05 A3022 RMK A01 T10141050  RH  076%=      5-min Rain = 0
KME1 130911Z 00000KT M01/M05 A3022 RMK A01 T10141050  RH  076%=      5-min Rain = 0
KME1 130912Z 21000KT M01/M05 A3022 RMK A01 T10141050  RH  076%=      5-min Rain = 0
KME1 130913Z 21001KT M01/M05 A3022 RMK A01 T10141051  RH  076%=      5-min Rain = 0
KME1 130914Z 20001KT M01/M05 A3022 RMK A01 T10141051  RH  076%=      5-min Rain = 0
KME1 130915Z 19002KT M02/M05 A3022 RMK A01 T10151052  RH  076%=      5-min Rain = 0
KME1 130916Z 19002KT M02/M05 A3022 RMK A01 T10151052  RH  076%=      5-min Rain = 0
KME1 130917Z 18002KT M02/M05 A3022 RMK A01 T10161053  RH  076%=      5-min Rain = 0
KME1 130918Z 19001KT M02/M05 A3022 RMK A01 T10161053  RH  076%=      5-min Rain = 0
KME1 130919Z 19001KT M02/M05 A3022 RMK A01 T10161053  RH  076%=      5-min Rain = 0
KME1 130920Z 19001KT M02/M05 A3022 RMK A01 T10171054  RH  076%=      5-min Rain = 0
KME1 130921Z 20001KT M02/M06 A3022 RMK A01 T10171055  RH  076%=      5-min Rain = 0
KME1 130922Z 20001KT M02/M06 A3022 RMK A01 T10171055  RH  076%=      5-min Rain = 0
KME1 130923Z 20001KT M02/M06 A3022 RMK A01 T10181055  RH  076%=      5-min Rain = 0
KME1 130924Z 19001KT M02/M06 A3022 RMK A01 T10181055  RH  076%=      5-min Rain = 0
KME1 130925Z 19001KT M02/M06 A3022 RMK A01 T10181055  RH  076%=      5-min Rain = 0
KME1 130926Z 19001KT M02/M05 A3022 RMK A01 T10181054  RH  077%=      5-min Rain = 0
KME1 130927Z 19001KT M02/M05 A3022 RMK A01 T10181053  RH  077%=      5-min Rain = 0
KME1 130928Z 19002KT M02/M05 A3022 RMK A01 T10181053  RH  077%=      5-min Rain = 0
KME1 130929Z 19001KT M02/M05 A3022 RMK A01 T10181053  RH  077%=      5-min Rain = 0
KME1 130930Z 18001KT M02/M05 A3022 RMK A01 T10181053  RH  077%=      5-min Rain = 0
KME1 130931Z 20002KT M02/M05 A3022 RMK A01 T10181052  RH  078%=      5-min Rain = 0
KME1 130932Z 20002KT M02/M05 A3022 RMK A01 T10181053  RH  077%=      5-min Rain = 0
KME1 130933Z 19003KT M02/M05 A3022 RMK A01 T10181054  RH  077%=      5-min Rain = 0
KME1 130934Z 19003KT M02/M05 A3022 RMK A01 T10191054  RH  077%=      5-min Rain = 0
KME1 130935Z 19003KT M02/M05 A3022 RMK A01 T10191054  RH  077%=      5-min Rain = 0
KME1 130936Z 19003KT M02/M05 A3023 RMK A01 T10191054  RH  077%=      5-min Rain = 0
KME1 130937Z 19003KT M02/M05 A3023 RMK A01 T10191053  RH  078%=      5-min Rain = 0
KME1 130938Z 20002KT M02/M05 A3023 RMK A01 T10191053  RH  078%=      5-min Rain = 0
KME1 130939Z 20002KT M02/M05 A3023 RMK A01 T10181051  RH  078%=      5-min Rain = 0
KME1 130940Z 20002KT M02/M05 A3023 RMK A01 T10171049  RH  079%=      5-min Rain = 0
KME1 130941Z 21002KT M02/M05 A3023 RMK A01 T10161048  RH  079%=      5-min Rain = 0
KME1 130942Z 21001KT M02/M05 A3023 RMK A01 T10151048  RH  078%=      5-min Rain = 0
KME1 130943Z 20001KT M02/M05 A3023 RMK A01 T10151048  RH  078%=      5-min Rain = 0
KME1 130944Z 20001KT M02/M05 A3023 RMK A01 T10151048  RH  078%=      5-min Rain = 0
KME1 130945Z 21000KT M01/M05 A3023 RMK A01 T10141047  RH  078%=      5-min Rain = 0
KME1 130946Z 22000KT M01/M05 A3023 RMK A01 T10141047  RH  078%=      5-min Rain = 0
KME1 130947Z 22000KT M01/M05 A3023 RMK A01 T10131047  RH  078%=      5-min Rain = 0
KME1 130948Z 22001KT M01/M05 A3023 RMK A01 T10131047  RH  078%=      5-min Rain = 0
KME1 130949Z 24001KT M01/M05 A3022 RMK A01 T10131047  RH  078%=      5-min Rain = 0
KME1 130950Z 24001KT M01/M05 A3022 RMK A01 T10131047  RH  078%=      5-min Rain = 0
KME1 130951Z 23001KT M01/M05 A3022 RMK A01 T10121046  RH  078%=      5-min Rain = 0
KME1 130952Z 23000KT M01/M05 A3022 RMK A01 T10121046  RH  078%=      5-min Rain = 0
KME1 130953Z 00000KT M01/M05 A3023 RMK A01 T10121046  RH  077%=      5-min Rain = 0
KME1 130954Z 00000KT M01/M05 A3023 RMK A01 T10111046  RH  077%=      5-min Rain = 0
KME1 130955Z 00000KT M01/M05 A3023 RMK A01 T10121047  RH  077%=      5-min Rain = 0
KME1 130956Z 34000KT M01/M05 A3023 RMK A01 T10121048  RH  077%=      5-min Rain = 0
KME1 130957Z 34000KT M01/M05 A3023 RMK A01 T10141050  RH  077%=      5-min Rain = 0
KME1 130958Z 00000KT M02/M05 A3023 RMK A01 T10161051  RH  077%=      5-min Rain = 0
KME1 130959Z 00000KT M02/M05 A3023 RMK A01 T10161050  RH  077%=      5-min Rain = 0
KME1 131000Z 00000KT M02/M05 A3023 RMK A01 T10161050  RH  078%=      5-min Rain = 0
KME1 131001Z 00000KT M02/M05 A3022 RMK A01 T10161050  RH  078%=      5-min Rain = 0
KME1 131002Z 00000KT M02/M05 A3022 RMK A01 T10161049  RH  078%=      5-min Rain = 0
KME1 131003Z 00000KT M02/M05 A3022 RMK A01 T10161049  RH  078%=      5-min Rain = 0
KME1 131004Z 00000KT M02/M05 A3022 RMK A01 T10171049  RH  079%=      5-min Rain = 0
KME1 131005Z 00000KT M02/M05 A3023 RMK A01 T10161048  RH  079%=      5-min Rain = 0
KME1 131006Z 00000KT M02/M05 A3023 RMK A01 T10161048  RH  079%=      5-min Rain = 0
KME1 131007Z 00000KT M02/M05 A3023 RMK A01 T10161048  RH  079%=      5-min Rain = 0
KME1 131008Z 00000KT M02/M05 A3023 RMK A01 T10161049  RH  078%=      5-min Rain = 0
KME1 131009Z 00000KT M02/M05 A3023 RMK A01 T10161048  RH  079%=      5-min Rain = 0
KME1 131010Z 34001KT M02/M05 A3023 RMK A01 T10161048  RH  079%=      5-min Rain = 0
KME1 131011Z 34001KT M02/M05 A3023 RMK A01 T10151047  RH  079%=      5-min Rain = 0
KME1 131012Z 34001KT M01/M05 A3022 RMK A01 T10131046  RH  078%=      5-min Rain = 0
KME1 131013Z 34000KT M01/M05 A3022 RMK A01 T10121046  RH  078%=      5-min Rain = 0
KME1 131014Z 00000KT M01/M05 A3022 RMK A01 T10111046  RH  077%=      5-min Rain = 0
KME1 131015Z 00000KT M01/M05 A3022 RMK A01 T10111046  RH  077%=      5-min Rain = 0
KME1 131016Z 00000KT M01/M05 A3023 RMK A01 T10101046  RH  077%=      5-min Rain = 0
KME1 131017Z 00000KT M01/M05 A3023 RMK A01 T10101046  RH  076%=      5-min Rain = 0
KME1 131018Z 00000KT M01/M05 A3023 RMK A01 T10101047  RH  076%=      5-min Rain = 0
KME1 131019Z 00000KT M01/M05 A3023 RMK A01 T10111047  RH  076%=      5-min Rain = 0
KME1 131020Z 00000KT M01/M05 A3023 RMK A01 T10121048  RH  076%=      5-min Rain = 0
KME1 131021Z 00000KT M01/M05 A3022 RMK A01 T10121048  RH  076%=      5-min Rain = 0
KME1 131022Z 00000KT M01/M05 A3023 RMK A01 T10131049  RH  076%=      5-min Rain = 0
KME1 131023Z 22000KT M01/M05 A3023 RMK A01 T10141050  RH  077%=      5-min Rain = 0
KME1 131024Z 22000KT M02/M05 A3023 RMK A01 T10151050  RH  077%=      5-min Rain = 0
KME1 131025Z 22000KT M02/M05 A3023 RMK A01 T10151050  RH  077%=      5-min Rain = 0
KME1 131026Z 22000KT M02/M05 A3023 RMK A01 T10161050  RH  078%=      5-min Rain = 0
KME1 131027Z 22000KT M02/M05 A3023 RMK A01 T10161049  RH  078%=      5-min Rain = 0
KME1 131028Z 22000KT M02/M05 A3023 RMK A01 T10161049  RH  078%=      5-min Rain = 0
KME1 131029Z 22001KT M02/M05 A3023 RMK A01 T10161049  RH  078%=      5-min Rain = 0
KME1 131030Z 22000KT M02/M05 A3023 RMK A01 T10171051  RH  078%=      5-min Rain = 0
KME1 131031Z 22000KT M02/M05 A3023 RMK A01 T10191053  RH  077%=      5-min Rain = 0
KME1 131032Z 23000KT M02/M05 A3023 RMK A01 T10191053  RH  077%=      5-min Rain = 0
KME1 131033Z 00000KT M02/M05 A3023 RMK A01 T10191053  RH  078%=      5-min Rain = 0
KME1 131034Z 00000KT M02/M05 A3023 RMK A01 T10191051  RH  079%=      5-min Rain = 0
KME1 131035Z 00000KT M02/M05 A3023 RMK A01 T10191050  RH  079%=      5-min Rain = 0
KME1 131036Z 22000KT M02/M05 A3023 RMK A01 T10191050  RH  079%=      5-min Rain = 0
KME1 131037Z 22001KT M02/M05 A3023 RMK A01 T10191050  RH  079%=      5-min Rain = 0
KME1 131038Z 22001KT M02/M05 A3023 RMK A01 T10191050  RH  079%=      5-min Rain = 0
KME1 131039Z 19002KT M02/M05 A3023 RMK A01 T10191050  RH  080%=      5-min Rain = 0
KME1 131040Z 19002KT M02/M05 A3023 RMK A01 T10191050  RH  079%=      5-min Rain = 0
KME1 131041Z 19002KT M02/M05 A3023 RMK A01 T10201052  RH  078%=      5-min Rain = 0
KME1 131042Z 19002KT M02/M05 A3023 RMK A01 T10211054  RH  078%=      5-min Rain = 0
KME1 131043Z 19002KT M02/M06 A3023 RMK A01 T10221056  RH  078%=      5-min Rain = 0
KME1 131044Z 19002KT M02/M06 A3023 RMK A01 T10241057  RH  078%=      5-min Rain = 0
KME1 131045Z 20002KT M02/M06 A3023 RMK A01 T10241057  RH  078%=      5-min Rain = 0
KME1 131046Z 21002KT M02/M06 A3023 RMK A01 T10241056  RH  079%=      5-min Rain = 0
KME1 131047Z 21002KT M02/M06 A3023 RMK A01 T10241056  RH  079%=      5-min Rain = 0
KME1 131048Z 21001KT M02/M06 A3023 RMK A01 T10241055  RH  079%=      5-min Rain = 0
KME1 131049Z 21001KT M02/M06 A3023 RMK A01 T10241055  RH  079%=      5-min Rain = 0
KME1 131050Z 21001KT M02/M05 A3023 RMK A01 T10241054  RH  080%=      5-min Rain = 0
KME1 131051Z 21001KT M02/M05 A3023 RMK A01 T10231052  RH  080%=      5-min Rain = 0
KME1 131052Z 21001KT M02/M05 A3024 RMK A01 T10221051  RH  081%=      5-min Rain = 0
KME1 131053Z 20002KT M02/M05 A3024 RMK A01 T10211050  RH  080%=      5-min Rain = 0
KME1 131054Z 20002KT M02/M05 A3024 RMK A01 T10211051  RH  080%=      5-min Rain = 0
KME1 131055Z 20002KT M02/M05 A3024 RMK A01 T10211052  RH  080%=      5-min Rain = 0
KME1 131056Z 19002KT M02/M05 A3024 RMK A01 T10221053  RH  079%=      5-min Rain = 0
KME1 131057Z 20002KT M02/M05 A3024 RMK A01 T10221054  RH  079%=      5-min Rain = 0
KME1 131058Z 20002KT M02/M06 A3024 RMK A01 T10231056  RH  078%=      5-min Rain = 0
KME1 131059Z 19002KT M02/M06 A3024 RMK A01 T10241056  RH  078%=      5-min Rain = 0
KME1 131100Z 19001KT M02/M06 A3024 RMK A01 T10241056  RH  079%=      5-min Rain = 0
KME1 131101Z 19002KT M02/M06 A3024 RMK A01 T10241055  RH  079%=      5-min Rain = 0
KME1 131102Z 20002KT M02/M05 A3024 RMK A01 T10241054  RH  080%=      5-min Rain = 0
KME1 131103Z 19002KT M02/M05 A3024 RMK A01 T10241053  RH  080%=      5-min Rain = 0
KME1 131104Z 20002KT M02/M05 A3024 RMK A01 T10231053  RH  080%=      5-min Rain = 0
KME1 131105Z 20002KT M02/M05 A3024 RMK A01 T10231053  RH  080%=      5-min Rain = 0
KME1 131106Z 19002KT M02/M05 A3024 RMK A01 T10231053  RH  080%=      5-min Rain = 0
KME1 131107Z 19002KT M02/M05 A3024 RMK A01 T10231053  RH  080%=      5-min Rain = 0
KME1 131108Z 19001KT M02/M05 A3024 RMK A01 T10231053  RH  080%=      5-min Rain = 0
KME1 131109Z 19001KT M02/M05 A3024 RMK A01 T10231054  RH  080%=      5-min Rain = 0
KME1 131110Z 19001KT M02/M05 A3024 RMK A01 T10231054  RH  080%=      5-min Rain = 0
KME1 131111Z 19001KT M02/M05 A3024 RMK A01 T10241054  RH  080%=      5-min Rain = 0
KME1 131112Z 19001KT M02/M05 A3025 RMK A01 T10231054  RH  080%=      5-min Rain = 0
KME1 131113Z 19002KT M02/M06 A3025 RMK A01 T10241055  RH  079%=      5-min Rain = 0
KME1 131114Z 19002KT M02/M06 A3025 RMK A01 T10241055  RH  079%=      5-min Rain = 0
KME1 131115Z 20003KT M02/M05 A3025 RMK A01 T10241054  RH  080%=      5-min Rain = 0
KME1 131116Z 19003KT M02/M05 A3025 RMK A01 T10241053  RH  080%=      5-min Rain = 0
KME1 131117Z 19003KT M02/M05 A3025 RMK A01 T10241054  RH  080%=      5-min Rain = 0
KME1 131118Z 19003KT M02/M05 A3025 RMK A01 T10241054  RH  080%=      5-min Rain = 0
KME1 131119Z 19002KT M02/M05 A3025 RMK A01 T10241054  RH  080%=      5-min Rain = 0
KME1 131120Z 19002KT M02/M05 A3025 RMK A01 T10241054  RH  080%=      5-min Rain = 0
KME1 131121Z 19002KT M02/M06 A3025 RMK A01 T10241055  RH  080%=      5-min Rain = 0
KME1 131122Z 19002KT M02/M05 A3025 RMK A01 T10241054  RH  080%=      5-min Rain = 0
KME1 131123Z 19003KT M02/M05 A3024 RMK A01 T10241054  RH  080%=      5-min Rain = 0
KME1 131124Z 19003KT M02/M05 A3025 RMK A01 T10241053  RH  081%=      5-min Rain = 0
KME1 131125Z 19003KT M02/M05 A3025 RMK A01 T10241053  RH  081%=      5-min Rain = 0
KME1 131126Z 20002KT M02/M05 A3025 RMK A01 T10241052  RH  081%=      5-min Rain = 0
KME1 131127Z 20002KT M02/M05 A3025 RMK A01 T10241052  RH  081%=      5-min Rain = 0
KME1 131128Z 19001KT M02/M05 A3025 RMK A01 T10231051  RH  081%=      5-min Rain = 0
KME1 131129Z 19001KT M02/M05 A3025 RMK A01 T10231051  RH  081%=      5-min Rain = 0
KME1 131130Z 19000KT M02/M05 A3025 RMK A01 T10221050  RH  081%=      5-min Rain = 0
KME1 131131Z 00000KT M02/M05 A3025 RMK A01 T10221050  RH  081%=      5-min Rain = 0
KME1 131132Z 00000KT M02/M05 A3025 RMK A01 T10211050  RH  081%=      5-min Rain = 0
KME1 131133Z 00000KT M02/M05 A3025 RMK A01 T10211050  RH  081%=      5-min Rain = 0
KME1 131134Z 00000KT M02/M05 A3025 RMK A01 T10211050  RH  081%=      5-min Rain = 0
KME1 131135Z 00000KT M02/M05 A3025 RMK A01 T10211050  RH  081%=      5-min Rain = 0
KME1 131136Z 00000KT M02/M05 A3025 RMK A01 T10221050  RH  081%=      5-min Rain = 0
KME1 131137Z 00000KT M02/M05 A3025 RMK A01 T10221050  RH  081%=      5-min Rain = 0
KME1 131138Z 00000KT M02/M05 A3025 RMK A01 T10231052  RH  081%=      5-min Rain = 0
KME1 131139Z 00000KT M02/M05 A3025 RMK A01 T10241052  RH  081%=      5-min Rain = 0
KME1 131140Z 00000KT M02/M05 A3025 RMK A01 T10241052  RH  081%=      5-min Rain = 0
KME1 131141Z 00000KT M02/M05 A3025 RMK A01 T10241052  RH  081%=      5-min Rain = 0
KME1 131142Z 00000KT M02/M05 A3025 RMK A01 T10241051  RH  082%=      5-min Rain = 0
KME1 131143Z 00000KT M02/M05 A3025 RMK A01 T10241051  RH  082%=      5-min Rain = 0
KME1 131144Z 33000KT M02/M05 A3025 RMK A01 T10241051  RH  082%=      5-min Rain = 0
KME1 131145Z 33001KT M02/M05 A3025 RMK A01 T10241051  RH  082%=      5-min Rain = 0
KME1 131146Z 33001KT M02/M05 A3025 RMK A01 T10231050  RH  082%=      5-min Rain = 0
KME1 131147Z 33001KT M02/M05 A3025 RMK A01 T10231050  RH  082%=      5-min Rain = 0
KME1 131148Z 33001KT M02/M05 A3025 RMK A01 T10231050  RH  082%=      5-min Rain = 0
KME1 131149Z 32000KT M02/M05 A3025 RMK A01 T10231050  RH  082%=      5-min Rain = 0
KME1 131150Z 00000KT M02/M05 A3025 RMK A01 T10231050  RH  082%=      5-min Rain = 0
KME1 131151Z 00000KT M02/M05 A3025 RMK A01 T10231050  RH  082%=      5-min Rain = 0
KME1 131152Z 00000KT M02/M05 A3025 RMK A01 T10231050  RH  082%=      5-min Rain = 0
KME1 131153Z 24000KT M02/M05 A3025 RMK A01 T10221049  RH  082%=      5-min Rain = 0
KME1 131154Z 23001KT M02/M05 A3025 RMK A01 T10211048  RH  081%=      5-min Rain = 0
KME1 131155Z 23001KT M02/M05 A3025 RMK A01 T10211050  RH  081%=      5-min Rain = 0
KME1 131156Z 22001KT M02/M05 A3025 RMK A01 T10201050  RH  080%=      5-min Rain = 0
KME1 131157Z 22001KT M02/M05 A3025 RMK A01 T10211051  RH  080%=      5-min Rain = 0
KME1 131158Z 22001KT M02/M05 A3025 RMK A01 T10211050  RH  080%=      5-min Rain = 0
KME1 131159Z 22001KT M02/M05 A3025 RMK A01 T10211050  RH  081%=      5-min Rain = 0
KME1 131200Z 22001KT M02/M05 A3025 RMK A01 T10201049  RH  081%=      5-min Rain = 0
KME1 131201Z 22001KT M02/M05 A3025 RMK A01 T10191048  RH  081%=      5-min Rain = 0
KME1 131202Z 22001KT M02/M05 A3025 RMK A01 T10181048  RH  080%=      5-min Rain = 0
KME1 131203Z 22001KT M02/M05 A3026 RMK A01 T10181047  RH  080%=      5-min Rain = 0
KME1 131204Z 22001KT M02/M05 A3026 RMK A01 T10171048  RH  080%=      5-min Rain = 0
KME1 131205Z 22001KT M02/M05 A3026 RMK A01 T10181048  RH  080%=      5-min Rain = 0
KME1 131206Z 22001KT M02/M05 A3026 RMK A01 T10171048  RH  080%=      5-min Rain = 0
KME1 131207Z 22001KT M02/M05 A3026 RMK A01 T10171048  RH  080%=      5-min Rain = 0
KME1 131208Z 22000KT M02/M05 A3026 RMK A01 T10171048  RH  080%=      5-min Rain = 0
KME1 131209Z 00000KT M02/M05 A3026 RMK A01 T10171048  RH  080%=      5-min Rain = 0
KME1 131210Z 00000KT M02/M05 A3026 RMK A01 T10181048  RH  080%=      5-min Rain = 0
KME1 131211Z 00000KT M02/M05 A3026 RMK A01 T10181048  RH  080%=      5-min Rain = 0
KME1 131212Z 00000KT M02/M05 A3026 RMK A01 T10191049  RH  080%=      5-min Rain = 0
KME1 131213Z 00000KT M02/M05 A3026 RMK A01 T10201051  RH  079%=      5-min Rain = 0
KME1 131214Z 00000KT M02/M05 A3026 RMK A01 T10211051  RH  080%=      5-min Rain = 0
KME1 131215Z 00000KT M02/M05 A3026 RMK A01 T10221052  RH  080%=      5-min Rain = 0
KME1 131216Z 00000KT M02/M05 A3026 RMK A01 T10231052  RH  080%=      5-min Rain = 0
KME1 131217Z 00000KT M02/M05 A3026 RMK A01 T10241053  RH  081%=      5-min Rain = 0
KME1 131218Z 00000KT M02/M05 A3026 RMK A01 T10241052  RH  081%=      5-min Rain = 0
KME1 131219Z 00000KT M02/M05 A3026 RMK A01 T10241052  RH  081%=      5-min Rain = 0
KME1 131220Z 00000KT M02/M05 A3027 RMK A01 T10241052  RH  082%=      5-min Rain = 0
KME1 131221Z 00000KT M03/M05 A3027 RMK A01 T10251052  RH  082%=      5-min Rain = 0
KME1 131222Z 00000KT M03/M05 A3027 RMK A01 T10251051  RH  082%=      5-min Rain = 0
KME1 131223Z 00000KT M03/M05 A3027 RMK A01 T10251052  RH  082%=      5-min Rain = 0
KME1 131224Z 00000KT M03/M05 A3027 RMK A01 T10251052  RH  082%=      5-min Rain = 0
KME1 131225Z 00000KT M03/M05 A3027 RMK A01 T10251051  RH  082%=      5-min Rain = 0
KME1 131226Z 00000KT M03/M05 A3027 RMK A01 T10251052  RH  082%=      5-min Rain = 0
KME1 131227Z 00000KT M03/M05 A3027 RMK A01 T10261052  RH  082%=      5-min Rain = 0
KME1 131228Z 00000KT M03/M05 A3027 RMK A01 T10261053  RH  082%=      5-min Rain = 0
KME1 131229Z 00000KT M03/M05 A3027 RMK A01 T10271054  RH  081%=      5-min Rain = 0
KME1 131230Z 18000KT M03/M06 A3027 RMK A01 T10271055  RH  081%=      5-min Rain = 0
KME1 131231Z 18000KT M03/M06 A3027 RMK A01 T10281056  RH  081%=      5-min Rain = 0
KME1 131232Z 17001KT M03/M06 A3027 RMK A01 T10281055  RH  081%=      5-min Rain = 0
KME1 131233Z 17001KT M03/M06 A3027 RMK A01 T10281056  RH  081%=      5-min Rain = 0
KME1 131234Z 17001KT M03/M06 A3027 RMK A01 T10291057  RH  081%=      5-min Rain = 0
KME1 131235Z 16001KT M03/M06 A3027 RMK A01 T10291057  RH  081%=      5-min Rain = 0
KME1 131236Z 16001KT M03/M06 A3027 RMK A01 T10291057  RH  081%=      5-min Rain = 0
KME1 131237Z 17001KT M03/M06 A3027 RMK A01 T10291057  RH  082%=      5-min Rain = 0
KME1 131238Z 17001KT M03/M06 A3027 RMK A01 T10291056  RH  082%=      5-min Rain = 0
KME1 131239Z 17002KT M03/M06 A3027 RMK A01 T10291056  RH  082%=      5-min Rain = 0
KME1 131240Z 18002KT M03/M06 A3027 RMK A01 T10291056  RH  082%=      5-min Rain = 0
KME1 131241Z 18002KT M03/M06 A3027 RMK A01 T10291055  RH  082%=      5-min Rain = 0
KME1 131242Z 18001KT M03/M05 A3027 RMK A01 T10281054  RH  082%=      5-min Rain = 0
KME1 131243Z 18001KT M03/M05 A3027 RMK A01 T10271053  RH  082%=      5-min Rain = 0
KME1 131244Z 19001KT M03/M05 A3027 RMK A01 T10261052  RH  082%=      5-min Rain = 0
KME1 131245Z 19001KT M03/M05 A3027 RMK A01 T10261052  RH  082%=      5-min Rain = 0
KME1 131246Z 19001KT M03/M05 A3027 RMK A01 T10251052  RH  082%=      5-min Rain = 0
KME1 131247Z 19002KT M03/M05 A3027 RMK A01 T10261053  RH  081%=      5-min Rain = 0
KME1 131248Z 21003KT M03/M06 A3027 RMK A01 T10261055  RH  081%=      5-min Rain = 0
KME1 131249Z 21002KT M03/M06 A3027 RMK A01 T10271056  RH  080%=      5-min Rain = 0
KME1 131250Z 20002KT M03/M06 A3027 RMK A01 T10271056  RH  081%=      5-min Rain = 0
KME1 131251Z 20002KT M03/M06 A3027 RMK A01 T10281056  RH  081%=      5-min Rain = 0
KME1 131252Z 20002KT M03/M06 A3027 RMK A01 T10281057  RH  081%=      5-min Rain = 0
KME1 131253Z 19002KT M03/M06 A3027 RMK A01 T10281056  RH  081%=      5-min Rain = 0
KME1 131254Z 19002KT M03/M06 A3027 RMK A01 T10281055  RH  081%=      5-min Rain = 0
KME1 131255Z 19002KT M03/M06 A3027 RMK A01 T10281055  RH  082%=      5-min Rain = 0
KME1 131256Z 19002KT M03/M05 A3027 RMK A01 T10281054  RH  082%=      5-min Rain = 0
KME1 131257Z 19002KT M03/M05 A3027 RMK A01 T10271054  RH  082%=      5-min Rain = 0
KME1 131258Z 19002KT M03/M05 A3027 RMK A01 T10271053  RH  082%=      5-min Rain = 0
KME1 131259Z 19002KT M03/M05 A3027 RMK A01 T10261053  RH  082%=      5-min Rain = 0
KME1 131300Z 19002KT M03/M05 A3028 RMK A01 T10261052  RH  082%=      5-min Rain = 0
KME1 131301Z 20002KT M03/M05 A3028 RMK A01 T10261053  RH  082%=      5-min Rain = 0
KME1 131302Z 20002KT M03/M05 A3028 RMK A01 T10261052  RH  082%=      5-min Rain = 0
KME1 131303Z 20002KT M03/M05 A3028 RMK A01 T10251051  RH  083%=      5-min Rain = 0
KME1 131304Z 20001KT M03/M05 A3028 RMK A01 T10251050  RH  083%=      5-min Rain = 0
KME1 131305Z 20001KT M02/M05 A3028 RMK A01 T10241050  RH  083%=      5-min Rain = 0
KME1 131306Z 20001KT M02/M05 A3028 RMK A01 T10231049  RH  083%=      5-min Rain = 0
KME1 131307Z 00000KT M02/M05 A3028 RMK A01 T10231049  RH  083%=      5-min Rain = 0
KME1 131308Z 00000KT M02/M05 A3028 RMK A01 T10231048  RH  083%=      5-min Rain = 0
KME1 131309Z 00000KT M02/M05 A3028 RMK A01 T10221048  RH  082%=      5-min Rain = 0
KME1 131310Z 00000KT M02/M05 A3028 RMK A01 T10221049  RH  082%=      5-min Rain = 0
KME1 131311Z 00000KT M02/M05 A3028 RMK A01 T10221049  RH  082%=      5-min Rain = 0
KME1 131312Z 00000KT M02/M05 A3028 RMK A01 T10231049  RH  082%=      5-min Rain = 0
KME1 131313Z 00000KT M02/M05 A3028 RMK A01 T10231049  RH  082%=      5-min Rain = 0
KME1 131314Z 00000KT M02/M05 A3028 RMK A01 T10231049  RH  082%=      5-min Rain = 0
KME1 131315Z 00000KT M02/M05 A3028 RMK A01 T10221048  RH  082%=      5-min Rain = 0
KME1 131316Z 00000KT M02/M05 A3028 RMK A01 T10221048  RH  082%=      5-min Rain = 0
KME1 131317Z 00000KT M02/M05 A3028 RMK A01 T10211047  RH  082%=      5-min Rain = 0
KME1 131318Z 00000KT M02/M05 A3028 RMK A01 T10201047  RH  082%=      5-min Rain = 0
KME1 131319Z 00000KT M02/M05 A3028 RMK A01 T10191046  RH  082%=      5-min Rain = 0
KME1 131320Z 00000KT M02/M05 A3028 RMK A01 T10191045  RH  082%=      5-min Rain = 0
KME1 131321Z 00000KT M02/M05 A3028 RMK A01 T10181045  RH  082%=      5-min Rain = 0
KME1 131322Z 00000KT M02/M04 A3028 RMK A01 T10161043  RH  082%=      5-min Rain = 0
KME1 131323Z 00000KT M02/M04 A3028 RMK A01 T10151043  RH  081%=      5-min Rain = 0
KME1 131324Z 00000KT M01/M04 A3028 RMK A01 T10141042  RH  081%=      5-min Rain = 0
KME1 131325Z 00000KT M01/M04 A3028 RMK A01 T10131042  RH  080%=      5-min Rain = 0
KME1 131326Z 00000KT M01/M04 A3028 RMK A01 T10121042  RH  080%=      5-min Rain = 0
KME1 131327Z 00000KT M01/M04 A3028 RMK A01 T10121043  RH  079%=      5-min Rain = 0
KME1 131328Z 00000KT M01/M04 A3028 RMK A01 T10111042  RH  079%=      5-min Rain = 0
KME1 131329Z 00000KT M01/M04 A3028 RMK A01 T10101041  RH  079%=      5-min Rain = 0
KME1 131330Z 00000KT M01/M04 A3029 RMK A01 T10091039  RH  080%=      5-min Rain = 0
KME1 131331Z 00000KT M01/M04 A3029 RMK A01 T10071038  RH  079%=      5-min Rain = 0
KME1 131332Z 00000KT M01/M04 A3029 RMK A01 T10051038  RH  078%=      5-min Rain = 0
KME1 131333Z 00000KT M00/M04 A3029 RMK A01 T10021036  RH  078%=      5-min Rain = 0
KME1 131334Z 00000KT 00/M04 A3029 RMK A01 T00011036  RH  076%=      5-min Rain = 0
KME1 131335Z 00000KT 00/M04 A3029 RMK A01 T00041036  RH  074%=      5-min Rain = 0
KME1 131336Z 00000KT 01/M04 A3029 RMK A01 T00061037  RH  073%=      5-min Rain = 0
KME1 131337Z 00000KT 01/M04 A3029 RMK A01 T00081037  RH  072%=      5-min Rain = 0
KME1 131338Z 00000KT 01/M04 A3029 RMK A01 T00111035  RH  071%=      5-min Rain = 0
KME1 131339Z 00000KT 01/M04 A3029 RMK A01 T00121037  RH  070%=      5-min Rain = 0
KME1 131340Z 00000KT 01/M04 A3029 RMK A01 T00121038  RH  069%=      5-min Rain = 0
KME1 131341Z 00000KT 01/M04 A3029 RMK A01 T00121038  RH  070%=      5-min Rain = 0
KME1 131342Z 00000KT 01/M04 A3029 RMK A01 T00131036  RH  070%=      5-min Rain = 0
KME1 131343Z 00000KT 02/M03 A3029 RMK A01 T00161034  RH  069%=      5-min Rain = 0
KME1 131344Z 00000KT 02/M03 A3029 RMK A01 T00181033  RH  069%=      5-min Rain = 0
KME1 131345Z 00000KT 02/M03 A303 RMK A01 T00201034  RH  068%=      5-min Rain = 0
KME1 131346Z 00000KT 02/M03 A303 RMK A01 T00231032  RH  067%=      5-min Rain = 0
KME1 131347Z 00000KT 03/M03 A303 RMK A01 T00261030  RH  066%=      5-min Rain = 0
KME1 131348Z 00000KT 03/M03 A303 RMK A01 T00281031  RH  065%=      5-min Rain = 0
KME1 131349Z 00000KT 03/M03 A303 RMK A01 T00311029  RH  065%=      5-min Rain = 0
KME1 131350Z 00000KT 03/M03 A303 RMK A01 T00331029  RH  064%=      5-min Rain = 0
KME1 131351Z 00000KT 03/M03 A303 RMK A01 T00321031  RH  063%=      5-min Rain = 0
KME1 131352Z 00000KT 03/M03 A303 RMK A01 T00311031  RH  063%=      5-min Rain = 0
KME1 131353Z 00000KT 03/M03 A303 RMK A01 T00311031  RH  064%=      5-min Rain = 0
KME1 131354Z 00000KT 03/M03 A303 RMK A01 T00311031  RH  063%=      5-min Rain = 0
KME1 131355Z 00000KT 03/M03 A303 RMK A01 T00331030  RH  063%=      5-min Rain = 0
KME1 131356Z 00000KT 04/M03 A303 RMK A01 T00351029  RH  063%=      5-min Rain = 0
KME1 131357Z 00000KT 04/M03 A303 RMK A01 T00371029  RH  062%=      5-min Rain = 0
KME1 131358Z 00000KT 04/M03 A303 RMK A01 T00391027  RH  062%=      5-min Rain = 0
KME1 131359Z 00000KT 04/M03 A303 RMK A01 T00431026  RH  061%=      5-min Rain = 0
KME1 131400Z 00000KT 05/M03 A303 RMK A01 T00451026  RH  060%=      5-min Rain = 0
KME1 131401Z 00000KT 05/M03 A303 RMK A01 T00461027  RH  059%=      5-min Rain = 0
KME1 131402Z 32000KT 05/M03 A303 RMK A01 T00471026  RH  059%=      5-min Rain = 0
KME1 131403Z 00000KT 05/M03 A303 RMK A01 T00471026  RH  059%=      5-min Rain = 0
KME1 131404Z 00000KT 05/M03 A303 RMK A01 T00491025  RH  059%=      5-min Rain = 0
KME1 131405Z 00000KT 05/M02 A303 RMK A01 T00511024  RH  058%=      5-min Rain = 0
KME1 131406Z 00000KT 05/M02 A303 RMK A01 T00531024  RH  058%=      5-min Rain = 0
KME1 131407Z 07000KT 06/M02 A303 RMK A01 T00561022  RH  057%=      5-min Rain = 0
KME1 131408Z 06000KT 06/M02 A303 RMK A01 T00571023  RH  056%=      5-min Rain = 0
KME1 131409Z 35000KT 06/M02 A303 RMK A01 T00571024  RH  056%=      5-min Rain = 0
KME1 131410Z 08000KT 06/M02 A303 RMK A01 T00561024  RH  056%=      5-min Rain = 0
KME1 131411Z 04001KT 06/M02 A303 RMK A01 T00561024  RH  056%=      5-min Rain = 0
KME1 131412Z 04001KT 06/M02 A303 RMK A01 T00571023  RH  056%=      5-min Rain = 0
KME1 131413Z 01001KT 06/M02 A303 RMK A01 T00581023  RH  056%=      5-min Rain = 0
KME1 131414Z 01002KT 06/M03 A303 RMK A01 T00601025  RH  055%=      5-min Rain = 0
KME1 131415Z 00001KT 06/M03 A303 RMK A01 T00591027  RH  054%=      5-min Rain = 0
KME1 131416Z 04001KT 06/M03 A303 RMK A01 T00591027  RH  054%=      5-min Rain = 0
KME1 131417Z 04002KT 06/M03 A303 RMK A01 T00591028  RH  054%=      5-min Rain = 0
KME1 131418Z 04001KT 06/M03 A303 RMK A01 T00581028  RH  054%=      5-min Rain = 0
KME1 131419Z 02002KT 06/M03 A303 RMK A01 T00581027  RH  054%=      5-min Rain = 0
KME1 131420Z 02002KT 06/M03 A303 RMK A01 T00591025  RH  055%=      5-min Rain = 0
KME1 131421Z 03002KT 06/M03 A303 RMK A01 T00591025  RH  055%=      5-min Rain = 0
KME1 131422Z 01002KT 06/M02 A303 RMK A01 T00601024  RH  055%=      5-min Rain = 0
KME1 131423Z 02002KT 06/M02 A303 RMK A01 T00611024  RH  054%=      5-min Rain = 0
KME1 131424Z 00001KT 06/M02 A303 RMK A01 T00621024  RH  054%=      5-min Rain = 0
KME1 131425Z 01002KT 06/M02 A303 RMK A01 T00621024  RH  054%=      5-min Rain = 0
KME1 131426Z 02002KT 06/M02 A3031 RMK A01 T00641022  RH  054%=      5-min Rain = 0
KME1 131427Z 06003KT 06/M02 A3031 RMK A01 T00641024  RH  054%=      5-min Rain = 0
KME1 131428Z 06002KT 06/M02 A3031 RMK A01 T00631024  RH  054%=      5-min Rain = 0
KME1 131429Z 04003KT 06/M03 A3031 RMK A01 T00631025  RH  054%=      5-min Rain = 0
KME1 131430Z 05003KT 06/M02 A3031 RMK A01 T00631024  RH  054%=      5-min Rain = 0
KME1 131431Z 04004KT 06/M02 A3031 RMK A01 T00641024  RH  053%=      5-min Rain = 0
KME1 131432Z 04003KT 06/M02 A3031 RMK A01 T00641024  RH  053%=      5-min Rain = 0
KME1 131433Z 04002KT 06/M03 A3031 RMK A01 T00641025  RH  053%=      5-min Rain = 0
KME1 131434Z 07002KT 07/M02 A3031 RMK A01 T00651024  RH  053%=      5-min Rain = 0
KME1 131435Z 07003KT 07/M02 A3031 RMK A01 T00661023  RH  053%=      5-min Rain = 0
KME1 131436Z 08002KT 07/M02 A3031 RMK A01 T00671023  RH  052%=      5-min Rain = 0
KME1 131437Z 05002KT 07/M02 A3031 RMK A01 T00671023  RH  052%=      5-min Rain = 0
KME1 131438Z 03003KT 07/M02 A3031 RMK A01 T00681023  RH  052%=      5-min Rain = 0
KME1 131439Z 05003KT 07/M02 A3031 RMK A01 T00701021  RH  053%=      5-min Rain = 0
KME1 131440Z 05004KT 07/M02 A3031 RMK A01 T00721021  RH  052%=      5-min Rain = 0
KME1 131441Z 07002KT 07/M02 A3031 RMK A01 T00721022  RH  051%=      5-min Rain = 0
KME1 131442Z 04003KT 07/M02 A3031 RMK A01 T00721023  RH  051%=      5-min Rain = 0
KME1 131443Z 03003KT 07/M02 A3031 RMK A01 T00721024  RH  050%=      5-min Rain = 0
KME1 131444Z 04003KT 07/M02 A3031 RMK A01 T00731023  RH  051%=      5-min Rain = 0
KME1 131445Z 05003KT 07/M02 A3031 RMK A01 T00721024  RH  050%=      5-min Rain = 0
KME1 131446Z 07003KT 07/M02 A3031 RMK A01 T00731024  RH  050%=      5-min Rain = 0
KME1 131447Z 07003KT 07/M02 A3031 RMK A01 T00741024  RH  050%=      5-min Rain = 0
KME1 131448Z 06003KT 07/M03 A3031 RMK A01 T00741025  RH  050%=      5-min Rain = 0
KME1 131449Z 07003KT 08/M03 A3031 RMK A01 T00751025  RH  049%=      5-min Rain = 0
KME1 131450Z 06002KT 08/M02 A3031 RMK A01 T00761024  RH  049%=      5-min Rain = 0
KME1 131451Z 06003KT 08/M03 A3031 RMK A01 T00771025  RH  049%=      5-min Rain = 0
KME1 131452Z 05002KT 08/M03 A3031 RMK A01 T00771025  RH  048%=      5-min Rain = 0
KME1 131453Z 06002KT 08/M03 A3031 RMK A01 T00771025  RH  048%=      5-min Rain = 0
KME1 131454Z 05003KT 08/M03 A3031 RMK A01 T00791025  RH  048%=      5-min Rain = 0
KME1 131455Z 04003KT 08/M03 A3031 RMK A01 T00791026  RH  048%=      5-min Rain = 0
KME1 131456Z 04002KT 08/M03 A3031 RMK A01 T00771026  RH  048%=      5-min Rain = 0
KME1 131457Z 03003KT 08/M03 A3031 RMK A01 T00771026  RH  048%=      5-min Rain = 0
KME1 131458Z 03002KT 08/M03 A3031 RMK A01 T00771026  RH  048%=      5-min Rain = 0
KME1 131459Z 06003KT 08/M03 A3032 RMK A01 T00771026  RH  048%=      5-min Rain = 0
KME1 131500Z 07002KT 08/M02 A3032 RMK A01 T00791023  RH  048%=      5-min Rain = 0
KME1 131501Z 06002KT 08/M02 A3032 RMK A01 T00821023  RH  047%=      5-min Rain = 0
KME1 131502Z 06002KT 09/M02 A3032 RMK A01 T00851022  RH  047%=      5-min Rain = 0
KME1 131503Z 06002KT 09/M02 A3032 RMK A01 T00871022  RH  046%=      5-min Rain = 0
KME1 131504Z 05002KT 09/M02 A3032 RMK A01 T00891023  RH  046%=      5-min Rain = 0
KME1 131505Z 04002KT 09/M02 A3032 RMK A01 T00891023  RH  045%=      5-min Rain = 0
KME1 131506Z 04002KT 09/M02 A3032 RMK A01 T00891024  RH  045%=      5-min Rain = 0
KME1 131507Z 07001KT 09/M02 A3032 RMK A01 T00901023  RH  045%=      5-min Rain = 0
KME1 131508Z 10002KT 09/M02 A3032 RMK A01 T00921022  RH  045%=      5-min Rain = 0
KME1 131509Z 10003KT 09/M02 A3032 RMK A01 T00931023  RH  044%=      5-min Rain = 0
KME1 131510Z 09003KT 09/M02 A3032 RMK A01 T00931023  RH  044%=      5-min Rain = 0
KME1 131511Z 07002KT 09/M02 A3032 RMK A01 T00921024  RH  044%=      5-min Rain = 0
KME1 131512Z 07003KT 09/M02 A3032 RMK A01 T00921023  RH  044%=      5-min Rain = 0
KME1 131513Z 06002KT 09/M02 A3032 RMK A01 T00931022  RH  044%=      5-min Rain = 0
KME1 131514Z 08003KT 09/M02 A3032 RMK A01 T00931023  RH  044%=      5-min Rain = 0
KME1 131515Z 08001KT 09/M02 A3032 RMK A01 T00931022  RH  044%=      5-min Rain = 0
KME1 131516Z 18000KT 09/M02 A3032 RMK A01 T00931023  RH  044%=      5-min Rain = 0
KME1 131517Z 13001KT 09/M02 A3032 RMK A01 T00941022  RH  044%=      5-min Rain = 0
KME1 131518Z 12000KT 09/M02 A3032 RMK A01 T00941022  RH  044%=      5-min Rain = 0
KME1 131519Z 06001KT 10/M02 A3032 RMK A01 T00971019  RH  044%=      5-min Rain = 0
KME1 131520Z 06003KT 10/M02 A3032 RMK A01 T00991019  RH  043%=      5-min Rain = 0
KME1 131521Z 04002KT 10/M02 A3032 RMK A01 T01001020  RH  043%=      5-min Rain = 0
KME1 131522Z 09001KT 10/M02 A3032 RMK A01 T01001021  RH  043%=      5-min Rain = 0
KME1 131523Z 07000KT 10/M02 A3032 RMK A01 T01001021  RH  043%=      5-min Rain = 0
KME1 131524Z 06003KT 10/M02 A3032 RMK A01 T01021020  RH  043%=      5-min Rain = 0
KME1 131525Z 07002KT 10/M02 A3032 RMK A01 T01021020  RH  042%=      5-min Rain = 0
KME1 131526Z 07002KT 10/M02 A3032 RMK A01 T01021020  RH  042%=      5-min Rain = 0
KME1 131527Z 08002KT 10/M02 A3032 RMK A01 T01011021  RH  043%=      5-min Rain = 0
KME1 131528Z 07001KT 10/M02 A3032 RMK A01 T01011021  RH  043%=      5-min Rain = 0
KME1 131529Z 08002KT 10/M02 A3032 RMK A01 T01021020  RH  043%=      5-min Rain = 0
KME1 131530Z 10002KT 10/M02 A3032 RMK A01 T01041018  RH  043%=      5-min Rain = 0
KME1 131531Z 12002KT 11/M02 A3032 RMK A01 T01061017  RH  042%=      5-min Rain = 0
KME1 131532Z 18002KT 11/M02 A3032 RMK A01 T01071018  RH  042%=      5-min Rain = 0
KME1 131533Z 20003KT 11/M02 A3032 RMK A01 T01071018  RH  042%=      5-min Rain = 0
KME1 131534Z 17002KT 11/M02 A3032 RMK A01 T01071018  RH  042%=      5-min Rain = 0
KME1 131535Z 19001KT 11/M02 A3032 RMK A01 T01071017  RH  042%=      5-min Rain = 0
KME1 131536Z 06003KT 11/M02 A3032 RMK A01 T01091017  RH  042%=      5-min Rain = 0
KME1 131537Z 06002KT 11/M02 A3032 RMK A01 T01101016  RH  041%=      5-min Rain = 0
KME1 131538Z 01001KT 11/M02 A3032 RMK A01 T01111016  RH  041%=      5-min Rain = 0
KME1 131539Z 09000KT 11/M02 A3032 RMK A01 T01121016  RH  041%=      5-min Rain = 0
KME1 131540Z 13000KT 11/M02 A3032 RMK A01 T01141016  RH  040%=      5-min Rain = 0
KME1 131541Z 09000KT 12/M02 A3032 RMK A01 T01151016  RH  040%=      5-min Rain = 0
KME1 131542Z 02001KT 12/M02 A3032 RMK A01 T01171016  RH  040%=      5-min Rain = 0
KME1 131543Z 02002KT 12/M02 A3032 RMK A01 T01181016  RH  039%=      5-min Rain = 0
KME1 131544Z 07002KT 12/M02 A3032 RMK A01 T01181015  RH  040%=      5-min Rain = 0
KME1 131545Z 11002KT 12/M01 A3032 RMK A01 T01211012  RH  040%=      5-min Rain = 0
KME1 131546Z 12002KT 12/M01 A3032 RMK A01 T01221014  RH  039%=      5-min Rain = 0
KME1 131547Z 13001KT 12/M01 A3032 RMK A01 T01221014  RH  039%=      5-min Rain = 0
KME1 131548Z 28001KT 12/M01 A3032 RMK A01 T01231014  RH  039%=      5-min Rain = 0
KME1 131549Z 32002KT 12/M01 A3032 RMK A01 T01231014  RH  039%=      5-min Rain = 0
KME1 131550Z 00002KT 13/M01 A3032 RMK A01 T01251011  RH  039%=      5-min Rain = 0
KME1 131551Z 00002KT 13/M01 A3032 RMK A01 T01271013  RH  038%=      5-min Rain = 0
KME1 131552Z 01002KT 13/M01 A3032 RMK A01 T01271012  RH  038%=      5-min Rain = 0
KME1 131553Z 08001KT 13/M01 A3032 RMK A01 T01271013  RH  038%=      5-min Rain = 0
KME1 131554Z 10002KT 13/M01 A3032 RMK A01 T01281011  RH  038%=      5-min Rain = 0
KME1 131555Z 07004KT 13/M01 A3032 RMK A01 T01311011  RH  038%=      5-min Rain = 0
KME1 131556Z 08004KT 13/M01 A3032 RMK A01 T01321011  RH  037%=      5-min Rain = 0
KME1 131557Z 08002KT 13/M01 A3032 RMK A01 T01341009  RH  037%=      5-min Rain = 0
KME1 131558Z 07003KT 14/M01 A3032 RMK A01 T01361009  RH  037%=      5-min Rain = 0
KME1 131559Z 06003KT 14/M01 A3032 RMK A01 T01371009  RH  036%=      5-min Rain = 0
KME1 131600Z 09003KT 14/M01 A3032 RMK A01 T01411006  RH  036%=      5-min Rain = 0
KME1 131601Z 09002KT 14/M01 A3032 RMK A01 T01441007  RH  035%=      5-min Rain = 0
KME1 131602Z 21001KT 14/M01 A3032 RMK A01 T01431010  RH  035%=      5-min Rain = 0
KME1 131603Z 23002KT 15/M01 A3032 RMK A01 T01451009  RH  035%=      5-min Rain = 0
KME1 131604Z 14004KT 15/M01 A3032 RMK A01 T01451010  RH  034%=      5-min Rain = 0
KME1 131605Z 13004KT 15/M01 A3032 RMK A01 T01451010  RH  034%=      5-min Rain = 0
KME1 131606Z 11005KT 15/M01 A3032 RMK A01 T01481009  RH  034%=      5-min Rain = 0
KME1 131607Z 11006KT 15/M01 A3032 RMK A01 T01491011  RH  033%=      5-min Rain = 0
KME1 131608Z 09005KT 15/M01 A3032 RMK A01 T01491011  RH  033%=      5-min Rain = 0
KME1 131609Z 09004KT 15/M01 A3032 RMK A01 T01501010  RH  033%=      5-min Rain = 0
KME1 131610Z 16005KT 15/M01 A3032 RMK A01 T01511010  RH  033%=      5-min Rain = 0
KME1 131611Z 17006KT 15/M01 A3032 RMK A01 T01511011  RH  033%=      5-min Rain = 0
KME1 131612Z 18004KT 15/M01 A3032 RMK A01 T01501012  RH  033%=      5-min Rain = 0
KME1 131613Z 18004KT 15/M01 A3032 RMK A01 T01471012  RH  033%=      5-min Rain = 0
KME1 131614Z 17002KT 15/M01 A3032 RMK A01 T01471011  RH  034%=      5-min Rain = 0
KME1 131615Z 16002KT 15/M01 A3032 RMK A01 T01501010  RH  034%=      5-min Rain = 0
KME1 131616Z 15006KT 15/M01 A3032 RMK A01 T01511011  RH  033%=      5-min Rain = 0
KME1 131617Z 13007KT 15/M01 A3032 RMK A01 T01511012  RH  033%=      5-min Rain = 0
KME1 131618Z 14006KT 15/M01 A3032 RMK A01 T01501013  RH  033%=      5-min Rain = 0
KME1 131619Z 13004KT 15/M01 A3032 RMK A01 T01481012  RH  033%=      5-min Rain = 0
KME1 131620Z 11004KT 15/M01 A3032 RMK A01 T01471013  RH  033%=      5-min Rain = 0
KME1 131621Z 13007KT 15/M01 A3032 RMK A01 T01471012  RH  033%=      5-min Rain = 0
KME1 131622Z 13007KT 15/M01 A3032 RMK A01 T01481013  RH  033%=      5-min Rain = 0
KME1 131623Z 13005KT 15/M01 A3032 RMK A01 T01481014  RH  033%=      5-min Rain = 0
KME1 131624Z 13004KT 15/M01 A3032 RMK A01 T01481012  RH  033%=      5-min Rain = 0
KME1 131625Z 12006KT 15/M01 A3032 RMK A01 T01521008  RH  033%=      5-min Rain = 0
KME1 131626Z 11004KT 15/M01 A3032 RMK A01 T01541009  RH  033%=      5-min Rain = 0
KME1 131627Z 11004KT 16/M01 A3032 RMK A01 T01551010  RH  032%=      5-min Rain = 0
KME1 131628Z 11003KT 15/M01 A3032 RMK A01 T01541011  RH  032%=      5-min Rain = 0
KME1 131629Z 16004KT 16/M01 A3032 RMK A01 T01551011  RH  032%=      5-min Rain = 0
KME1 131630Z 15006KT 16/M01 A3032 RMK A01 T01571009  RH  032%=      5-min Rain = 0
KME1 131631Z 15007KT 16/M01 A3032 RMK A01 T01611008  RH  032%=      5-min Rain = 0
KME1 131632Z 14004KT 16/M01 A3032 RMK A01 T01611012  RH  031%=      5-min Rain = 0
KME1 131633Z 10002KT 16/M01 A3032 RMK A01 T01591012  RH  031%=      5-min Rain = 0
KME1 131634Z 12004KT 16/M01 A3032 RMK A01 T01571013  RH  031%=      5-min Rain = 0
KME1 131635Z 12004KT 16/M01 A3032 RMK A01 T01571012  RH  031%=      5-min Rain = 0
KME1 131636Z 11004KT 16/M01 A3032 RMK A01 T01571012  RH  031%=      5-min Rain = 0
KME1 131637Z 10005KT 16/M01 A3031 RMK A01 T01561012  RH  032%=      5-min Rain = 0
KME1 131638Z 12003KT 16/M01 A3031 RMK A01 T01551012  RH  032%=      5-min Rain = 0
KME1 131639Z 17003KT 16/M01 A3031 RMK A01 T01561012  RH  032%=      5-min Rain = 0
KME1 131640Z 14002KT 16/M01 A3031 RMK A01 T01571011  RH  032%=      5-min Rain = 0
KME1 131641Z 14004KT 16/M01 A3031 RMK A01 T01581011  RH  032%=      5-min Rain = 0
KME1 131642Z 14003KT 16/M01 A3031 RMK A01 T01571011  RH  032%=      5-min Rain = 0
KME1 131643Z 13005KT 16/M01 A3032 RMK A01 T01571010  RH  032%=      5-min Rain = 0
KME1 131644Z 10004KT 16/M01 A3031 RMK A01 T01571012  RH  031%=      5-min Rain = 0
KME1 131645Z 08003KT 16/M01 A3031 RMK A01 T01561014  RH  031%=      5-min Rain = 0
KME1 131646Z 12004KT 15/M01 A3031 RMK A01 T01541014  RH  031%=      5-min Rain = 0
KME1 131647Z 13004KT 16/M01 A3031 RMK A01 T01561013  RH  031%=      5-min Rain = 0
KME1 131648Z 12005KT 16/M01 A3031 RMK A01 T01561013  RH  031%=      5-min Rain = 0
KME1 131649Z 16005KT 16/M01 A3031 RMK A01 T01571013  RH  031%=      5-min Rain = 0
KME1 131650Z 16006KT 16/M01 A3031 RMK A01 T01591011  RH  031%=      5-min Rain = 0
KME1 131651Z 15006KT 16/M01 A3031 RMK A01 T01601012  RH  031%=      5-min Rain = 0
KME1 131652Z 13007KT 16/M01 A3031 RMK A01 T01601013  RH  031%=      5-min Rain = 0
KME1 131653Z 08006KT 16/M01 A3031 RMK A01 T01601013  RH  031%=      5-min Rain = 0
KME1 131654Z 08008KT 16/M01 A3031 RMK A01 T01581014  RH  031%=      5-min Rain = 0
KME1 131655Z 07007KT 16/M01 A3031 RMK A01 T01591013  RH  031%=      5-min Rain = 0
KME1 131656Z 08006KT 16/M01 A3031 RMK A01 T01611012  RH  031%=      5-min Rain = 0
KME1 131657Z 08004KT 16/M01 A3031 RMK A01 T01621013  RH  030%=      5-min Rain = 0
KME1 131658Z 06003KT 16/M01 A3031 RMK A01 T01621014  RH  030%=      5-min Rain = 0
KME1 131659Z 13005KT 16/M02 A3031 RMK A01 T01591015  RH  030%=      5-min Rain = 0
KME1 131700Z 13005KT 16/M02 A3031 RMK A01 T01591015  RH  030%=      5-min Rain = 0
KME1 131701Z 15005KT 16/M02 A3031 RMK A01 T01581015  RH  030%=      5-min Rain = 0
KME1 131702Z 15006KT 16/M01 A3031 RMK A01 T01581014  RH  031%=      5-min Rain = 0
KME1 131703Z 15007KT 16/M01 A3031 RMK A01 T01591013  RH  031%=      5-min Rain = 0
KME1 131704Z 14007KT 16/M01 A3031 RMK A01 T01611010  RH  031%=      5-min Rain = 0
KME1 131705Z 15006KT 16/M01 A3031 RMK A01 T01611011  RH  031%=      5-min Rain = 0
KME1 131706Z 14005KT 16/M01 A3031 RMK A01 T01611012  RH  031%=      5-min Rain = 0
KME1 131707Z 10006KT 16/M01 A3031 RMK A01 T01611012  RH  031%=      5-min Rain = 0
KME1 131708Z 10006KT 16/M01 A3031 RMK A01 T01611014  RH  030%=      5-min Rain = 0
KME1 131709Z 08008KT 16/M02 A3031 RMK A01 T01611015  RH  030%=      5-min Rain = 0
KME1 131710Z 10005KT 16/M01 A3031 RMK A01 T01611014  RH  030%=      5-min Rain = 0
KME1 131711Z 11005KT 16/M01 A3031 RMK A01 T01621013  RH  030%=      5-min Rain = 0
KME1 131712Z 10006KT 16/M01 A3031 RMK A01 T01611014  RH  030%=      5-min Rain = 0
KME1 131713Z 08005KT 16/M01 A3031 RMK A01 T01611014  RH  030%=      5-min Rain = 0
KME1 131714Z 05006KT 16/M01 A3031 RMK A01 T01621013  RH  030%=      5-min Rain = 0
KME1 131715Z 06007KT 17/M01 A3031 RMK A01 T01671011  RH  030%=      5-min Rain = 0
KME1 131716Z 04007KT 17/M01 A3031 RMK A01 T01681012  RH  029%=      5-min Rain = 0
KME1 131717Z 04006KT 17/M01 A3031 RMK A01 T01671013  RH  029%=      5-min Rain = 0
KME1 131718Z 05005KT 16/M01 A3031 RMK A01 T01641014  RH  029%=      5-min Rain = 0
KME1 131719Z 05010KT 16/M01 A3031 RMK A01 T01631014  RH  030%=      5-min Rain = 0
KME1 131720Z 07009KT 16/M01 A3031 RMK A01 T01621014  RH  030%=      5-min Rain = 0
KME1 131721Z 08008G13KT 16/M02 A3031 RMK A01 T01621015  RH  030%=      5-min Rain = 0
KME1 131722Z 08007KT 16/M02 A3031 RMK A01 T01621015  RH  030%=      5-min Rain = 0
KME1 131723Z 08007KT 16/M02 A3031 RMK A01 T01611017  RH  030%=      5-min Rain = 0
KME1 131724Z 09006KT 16/M02 A3031 RMK A01 T01621015  RH  030%=      5-min Rain = 0
KME1 131725Z 09006KT 16/M01 A3031 RMK A01 T01631014  RH  030%=      5-min Rain = 0
KME1 131726Z 11005KT 16/M02 A3031 RMK A01 T01621016  RH  030%=      5-min Rain = 0
KME1 131727Z 07003KT 16/M02 A3031 RMK A01 T01611016  RH  030%=      5-min Rain = 0
KME1 131728Z 09002G8KT 16/M02 A3031 RMK A01 T01611017  RH  030%=      5-min Rain = 0
KME1 131729Z 07006KT 16/M01 A3031 RMK A01 T01641014  RH  030%=      5-min Rain = 0
KME1 131730Z 07008KT 17/M01 A3031 RMK A01 T01681013  RH  029%=      5-min Rain = 0
KME1 131731Z 07007KT 17/M01 A303 RMK A01 T01701014  RH  028%=      5-min Rain = 0
KME1 131732Z 10008KT 17/M02 A303 RMK A01 T01671017  RH  028%=      5-min Rain = 0
KME1 131733Z 09005KT 17/M02 A303 RMK A01 T01651018  RH  029%=      5-min Rain = 0
KME1 131734Z 11003KT 16/M02 A303 RMK A01 T01631019  RH  029%=      5-min Rain = 0
KME1 131735Z 13005KT 16/M02 A303 RMK A01 T01631018  RH  029%=      5-min Rain = 0
KME1 131736Z 07005G10KT 17/M02 A303 RMK A01 T01661015  RH  029%=      5-min Rain = 0
KME1 131737Z 08009KT 17/M01 A303 RMK A01 T01711010  RH  029%=      5-min Rain = 0
KME1 131738Z 09008KT 17/M01 A303 RMK A01 T01731012  RH  028%=      5-min Rain = 0
KME1 131739Z 09008KT 17/M01 A303 RMK A01 T01721012  RH  028%=      5-min Rain = 0
KME1 131740Z 10006KT 17/M01 A303 RMK A01 T01721012  RH  029%=      5-min Rain = 0
KME1 131741Z 08006KT 17/M01 A303 RMK A01 T01741009  RH  029%=      5-min Rain = 0
KME1 131742Z 07005KT 18/M01 A303 RMK A01 T01761011  RH  028%=      5-min Rain = 0
KME1 131743Z 05006KT 18/M01 A303 RMK A01 T01771012  RH  028%=      5-min Rain = 0
KME1 131744Z 08009KT 17/M01 A303 RMK A01 T01741014  RH  028%=      5-min Rain = 0
KME1 131745Z 08008KT 17/M01 A303 RMK A01 T01721012  RH  029%=      5-min Rain = 0
KME1 131746Z 08003KT 17/M01 A303 RMK A01 T01731011  RH  028%=      5-min Rain = 0
KME1 131747Z 08008KT 18/M01 A303 RMK A01 T01751010  RH  028%=      5-min Rain = 0
KME1 131748Z 09007KT 18/M01 A303 RMK A01 T01751012  RH  028%=      5-min Rain = 0
KME1 131749Z 09006KT 18/M01 A303 RMK A01 T01751013  RH  028%=      5-min Rain = 0
KME1 131750Z 11003KT 18/M01 A303 RMK A01 T01751013  RH  028%=      5-min Rain = 0
KME1 131751Z 08002KT 17/M02 A303 RMK A01 T01731016  RH  028%=      5-min Rain = 0
KME1 131752Z 05004G9KT 17/M02 A303 RMK A01 T01691016  RH  028%=      5-min Rain = 0
KME1 131753Z 04009KT 17/M01 A303 RMK A01 T01681014  RH  029%=      5-min Rain = 0
KME1 131754Z 06006KT 17/M01 A303 RMK A01 T01701014  RH  028%=      5-min Rain = 0
KME1 131755Z 06006KT 17/M01 A303 RMK A01 T01711014  RH  028%=      5-min Rain = 0
KME1 131756Z 04002KT 18/M01 A303 RMK A01 T01751012  RH  028%=      5-min Rain = 0
KME1 131757Z 04003KT 18/M01 A3029 RMK A01 T01771013  RH  027%=      5-min Rain = 0
KME1 131758Z 06005G10KT 18/M02 A3029 RMK A01 T01761016  RH  027%=      5-min Rain = 0
KME1 131759Z 08008G13KT 17/M01 A3029 RMK A01 T01741014  RH  028%=      5-min Rain = 0
KME1 131800Z 08007G12KT 17/M01 A3029 RMK A01 T01731014  RH  028%=      5-min Rain = 0
KME1 131801Z 07004KT 17/M02 A3029 RMK A01 T01711015  RH  028%=      5-min Rain = 0
KME1 131802Z 06004KT 17/M02 A3029 RMK A01 T01681016  RH  028%=      5-min Rain = 0
KME1 131803Z 06004KT 17/M01 A3029 RMK A01 T01681014  RH  029%=      5-min Rain = 0
KME1 131804Z 05007KT 17/M01 A3029 RMK A01 T01711012  RH  029%=      5-min Rain = 0
KME1 131805Z 03008KT 17/M01 A3029 RMK A01 T01711011  RH  029%=      5-min Rain = 0
KME1 131806Z 06008KT 17/M01 A3029 RMK A01 T01711011  RH  029%=      5-min Rain = 0
KME1 131807Z 07009KT 18/M01 A3029 RMK A01 T01761009  RH  028%=      5-min Rain = 0
KME1 131808Z 07005KT 18/M02 A3029 RMK A01 T01751016  RH  027%=      5-min Rain = 0
KME1 131809Z 08006KT 17/M02 A3029 RMK A01 T01711017  RH  028%=      5-min Rain = 0
KME1 131810Z 10010KT 17/M02 A3029 RMK A01 T01741016  RH  027%=      5-min Rain = 0
KME1 131811Z 10007KT 17/M02 A3029 RMK A01 T01741018  RH  027%=      5-min Rain = 0
KME1 131812Z 09005KT 18/M02 A3029 RMK A01 T01761020  RH  026%=      5-min Rain = 0
KME1 131813Z 09006KT 18/M02 A3029 RMK A01 T01751021  RH  026%=      5-min Rain = 0
KME1 131814Z 08007KT 18/M02 A3029 RMK A01 T01761018  RH  027%=      5-min Rain = 0
KME1 131815Z 09007KT 17/M02 A3029 RMK A01 T01741015  RH  028%=      5-min Rain = 0
KME1 131816Z 10006KT 17/M01 A3029 RMK A01 T01741012  RH  028%=      5-min Rain = 0
KME1 131817Z 12008KT 18/M01 A3029 RMK A01 T01781010  RH  028%=      5-min Rain = 0
KME1 131818Z 10007KT 18/M01 A3029 RMK A01 T01801012  RH  027%=      5-min Rain = 0
KME1 131819Z 06010KT 18/M01 A3029 RMK A01 T01801013  RH  027%=      5-min Rain = 0
KME1 131820Z 06005KT 18/M02 A3029 RMK A01 T01781017  RH  026%=      5-min Rain = 0
KME1 131821Z 11007KT 18/M02 A3029 RMK A01 T01771017  RH  027%=      5-min Rain = 0
KME1 131822Z 04007KT 18/M02 A3029 RMK A01 T01771015  RH  027%=      5-min Rain = 0
KME1 131823Z 06007KT 18/M01 A3029 RMK A01 T01781014  RH  027%=      5-min Rain = 0
KME1 131824Z 03006KT 18/M01 A3029 RMK A01 T01801014  RH  027%=      5-min Rain = 0
KME1 131825Z 07009KT 18/M01 A3029 RMK A01 T01831013  RH  026%=      5-min Rain = 0
KME1 131826Z 11009KT 18/M02 A3029 RMK A01 T01841018  RH  025%=      5-min Rain = 0
KME1 131827Z 10008KT 18/M02 A3029 RMK A01 T01821021  RH  025%=      5-min Rain = 0
KME1 131828Z 10008KT 18/M02 A3029 RMK A01 T01821020  RH  025%=      5-min Rain = 0
KME1 131829Z 12009KT 18/M02 A3029 RMK A01 T01831020  RH  025%=      5-min Rain = 0
KME1 131830Z 11007KT 18/M02 A3029 RMK A01 T01831019  RH  025%=      5-min Rain = 0
KME1 131831Z 11007KT 18/M02 A3029 RMK A01 T01841017  RH  025%=      5-min Rain = 0
KME1 131832Z 11005KT 18/M02 A3029 RMK A01 T01821021  RH  025%=      5-min Rain = 0
KME1 131833Z 08007KT 18/M02 A3029 RMK A01 T01821018  RH  026%=      5-min Rain = 0
KME1 131834Z 06009KT 18/M02 A3029 RMK A01 T01831022  RH  025%=      5-min Rain = 0
KME1 131835Z 08010KT 18/M02 A3029 RMK A01 T01821024  RH  024%=      5-min Rain = 0
KME1 131836Z 07009G14KT 18/M02 A3029 RMK A01 T01821022  RH  025%=      5-min Rain = 0
KME1 131837Z 05011KT 18/M02 A3029 RMK A01 T01841020  RH  025%=      5-min Rain = 0
KME1 131838Z 06008KT 19/M02 A3029 RMK A01 T01851020  RH  025%=      5-min Rain = 0
KME1 131839Z 06008KT 19/M02 A3029 RMK A01 T01851021  RH  025%=      5-min Rain = 0
KME1 131840Z 07007KT 19/M02 A3029 RMK A01 T01861023  RH  024%=      5-min Rain = 0
KME1 131841Z 08006KT 18/M03 A3029 RMK A01 T01831025  RH  024%=      5-min Rain = 0
KME1 131842Z 10004KT 18/M02 A3028 RMK A01 T01801024  RH  025%=      5-min Rain = 0
KME1 131843Z 03004KT 18/M02 A3028 RMK A01 T01781023  RH  025%=      5-min Rain = 0
KME1 131844Z 02004KT 18/M02 A3028 RMK A01 T01781020  RH  026%=      5-min Rain = 0
KME1 131845Z 03003KT 18/M02 A3028 RMK A01 T01771022  RH  026%=      5-min Rain = 0
KME1 131846Z 08006KT 18/M02 A3028 RMK A01 T01771023  RH  026%=      5-min Rain = 0
KME1 131847Z 07009G15KT 18/M02 A3028 RMK A01 T01841018  RH  025%=      5-min Rain = 0
KME1 131848Z 06013KT 19/M02 A3028 RMK A01 T01891015  RH  025%=      5-min Rain = 0
KME1 131849Z 06011KT 19/M02 A3028 RMK A01 T01871017  RH  025%=      5-min Rain = 0
KME1 131850Z 05011KT 19/M02 A3028 RMK A01 T01871015  RH  025%=      5-min Rain = 0
KME1 131851Z 04007KT 19/M02 A3028 RMK A01 T01871017  RH  025%=      5-min Rain = 0
KME1 131852Z 03006KT 18/M02 A3028 RMK A01 T01841018  RH  025%=      5-min Rain = 0
KME1 131853Z 06007KT 18/M02 A3028 RMK A01 T01821019  RH  025%=      5-min Rain = 0
KME1 131854Z 08010KT 18/M02 A3028 RMK A01 T01841016  RH  026%=      5-min Rain = 0
KME1 131855Z 08009KT 19/M02 A3028 RMK A01 T01861016  RH  025%=      5-min Rain = 0
KME1 131856Z 06007KT 19/M02 A3028 RMK A01 T01851018  RH  025%=      5-min Rain = 0
KME1 131857Z 05006KT 18/M02 A3027 RMK A01 T01841017  RH  026%=      5-min Rain = 0
KME1 131858Z 05007KT 18/M02 A3027 RMK A01 T01811020  RH  025%=      5-min Rain = 0
KME1 131859Z 07013KT 18/M02 A3027 RMK A01 T01831016  RH  026%=      5-min Rain = 0
KME1 131900Z 07012KT 19/M02 A3028 RMK A01 T01861018  RH  025%=      5-min Rain = 0
KME1 131901Z 08010KT 18/M02 A3028 RMK A01 T01831023  RH  025%=      5-min Rain = 0
KME1 131902Z 10010KT 18/M02 A3028 RMK A01 T01811022  RH  025%=      5-min Rain = 0
KME1 131903Z 08006KT 18/M02 A3027 RMK A01 T01801021  RH  025%=      5-min Rain = 0
KME1 131904Z 08011KT 18/M02 A3028 RMK A01 T01821018  RH  026%=      5-min Rain = 0
KME1 131905Z 08008KT 18/M02 A3028 RMK A01 T01831020  RH  025%=      5-min Rain = 0
KME1 131906Z 11006KT 18/M02 A3027 RMK A01 T01801020  RH  026%=      5-min Rain = 0
KME1 131907Z 06005KT 18/M02 A3027 RMK A01 T01821017  RH  026%=      5-min Rain = 0
KME1 131908Z 05007G13KT 18/M02 A3027 RMK A01 T01841019  RH  025%=      5-min Rain = 0
KME1 131909Z 05010KT 19/M02 A3027 RMK A01 T01881017  RH  025%=      5-min Rain = 0
KME1 131910Z 03007G13KT 19/M02 A3027 RMK A01 T01881022  RH  024%=      5-min Rain = 0
KME1 131911Z 02009KT 18/M03 A3027 RMK A01 T01831025  RH  024%=      5-min Rain = 0
KME1 131912Z 02009KT 18/M03 A3027 RMK A01 T01801027  RH  024%=      5-min Rain = 0
KME1 131913Z 03009KT 18/M03 A3027 RMK A01 T01791025  RH  025%=      5-min Rain = 0
KME1 131914Z 02010KT 19/M02 A3027 RMK A01 T01851020  RH  025%=      5-min Rain = 0
KME1 131915Z 04009KT 19/M02 A3027 RMK A01 T01911020  RH  024%=      5-min Rain = 0
KME1 131916Z 05011KT 20/M02 A3027 RMK A01 T01951015  RH  024%=      5-min Rain = 0
KME1 131917Z 06010KT 19/M02 A3027 RMK A01 T01941017  RH  024%=      5-min Rain = 0
KME1 131918Z 06013KT 19/M02 A3027 RMK A01 T01901019  RH  024%=      5-min Rain = 0
KME1 131919Z 05009KT 19/M02 A3027 RMK A01 T01861020  RH  025%=      5-min Rain = 0
KME1 131920Z 06007KT 19/M02 A3027 RMK A01 T01861018  RH  025%=      5-min Rain = 0
KME1 131921Z 06009KT 19/M02 A3027 RMK A01 T01851020  RH  025%=      5-min Rain = 0
KME1 131922Z 06011KT 19/M02 A3027 RMK A01 T01871017  RH  025%=      5-min Rain = 0
KME1 131923Z 07009KT 19/M02 A3027 RMK A01 T01881019  RH  025%=      5-min Rain = 0
KME1 131924Z 09007KT 19/M02 A3027 RMK A01 T01871020  RH  024%=      5-min Rain = 0
KME1 131925Z 12006KT 19/M02 A3026 RMK A01 T01861022  RH  024%=      5-min Rain = 0
KME1 131926Z 13006KT 19/M02 A3026 RMK A01 T01851020  RH  025%=      5-min Rain = 0
KME1 131927Z 08009KT 19/M02 A3026 RMK A01 T01881016  RH  025%=      5-min Rain = 0
KME1 131928Z 04011G17KT 19/M02 A3026 RMK A01 T01901017  RH  025%=      5-min Rain = 0
KME1 131929Z 07013KT 19/M02 A3026 RMK A01 T01901018  RH  024%=      5-min Rain = 0
KME1 131930Z 09011KT 19/M02 A3026 RMK A01 T01901020  RH  024%=      5-min Rain = 0
KME1 131931Z 08009KT 19/M02 A3026 RMK A01 T01901021  RH  024%=      5-min Rain = 0
KME1 131932Z 09009KT 19/M02 A3026 RMK A01 T01881022  RH  024%=      5-min Rain = 0
KME1 131933Z 10008KT 19/M02 A3026 RMK A01 T01861022  RH  024%=      5-min Rain = 0
KME1 131934Z 10006KT 19/M02 A3026 RMK A01 T01861021  RH  024%=      5-min Rain = 0
KME1 131935Z 09006KT 19/M02 A3026 RMK A01 T01871022  RH  024%=      5-min Rain = 0
KME1 131936Z 07008KT 19/M02 A3026 RMK A01 T01861020  RH  025%=      5-min Rain = 0
KME1 131937Z 06010KT 19/M02 A3026 RMK A01 T01861018  RH  025%=      5-min Rain = 0
KME1 131938Z 07010KT 19/M02 A3026 RMK A01 T01851017  RH  025%=      5-min Rain = 0
KME1 131939Z 08011KT 19/M02 A3026 RMK A01 T01851018  RH  025%=      5-min Rain = 0
KME1 131940Z 08007KT 18/M02 A3026 RMK A01 T01831019  RH  025%=      5-min Rain = 0
KME1 131941Z 10004KT 18/M02 A3026 RMK A01 T01821019  RH  025%=      5-min Rain = 0
KME1 131942Z 10008KT 18/M02 A3026 RMK A01 T01831017  RH  026%=      5-min Rain = 0
KME1 131943Z 10010KT 19/M02 A3026 RMK A01 T01851016  RH  025%=      5-min Rain = 0
KME1 131944Z 11009KT 19/M02 A3026 RMK A01 T01871019  RH  025%=      5-min Rain = 0
KME1 131945Z 11007KT 19/M02 A3026 RMK A01 T01871019  RH  025%=      5-min Rain = 0
KME1 131946Z 11009KT 19/M02 A3026 RMK A01 T01881019  RH  024%=      5-min Rain = 0
KME1 131947Z 12008KT 19/M02 A3026 RMK A01 T01871023  RH  024%=      5-min Rain = 0
KME1 131948Z 10007KT 18/M02 A3026 RMK A01 T01841024  RH  024%=      5-min Rain = 0
KME1 131949Z 10007KT 19/M02 A3026 RMK A01 T01851022  RH  024%=      5-min Rain = 0
KME1 131950Z 14006KT 19/M02 A3025 RMK A01 T01861022  RH  024%=      5-min Rain = 0
KME1 131951Z 11008KT 19/M02 A3026 RMK A01 T01851023  RH  024%=      5-min Rain = 0
KME1 131952Z 12007KT 19/M02 A3025 RMK A01 T01851024  RH  024%=      5-min Rain = 0
KME1 131953Z 11005KT 19/M02 A3025 RMK A01 T01861021  RH  024%=      5-min Rain = 0
KME1 131954Z 13006KT 19/M02 A3025 RMK A01 T01881023  RH  024%=      5-min Rain = 0
KME1 131955Z 13009KT 19/M02 A3025 RMK A01 T01871023  RH  024%=      5-min Rain = 0
KME1 131956Z 14010KT 19/M02 A3025 RMK A01 T01861024  RH  024%=      5-min Rain = 0
KME1 131957Z 13010KT 19/M03 A3025 RMK A01 T01851025  RH  024%=      5-min Rain = 0
KME1 131958Z 08006KT 19/M02 A3025 RMK A01 T01871024  RH  024%=      5-min Rain = 0
KME1 131959Z 08010KT 19/M02 A3025 RMK A01 T01901024  RH  023%=      5-min Rain = 0
KME1 132000Z 06009KT 19/M03 A3025 RMK A01 T01901026  RH  023%=      5-min Rain = 0
KME1 132001Z 08005KT 19/M03 A3025 RMK A01 T01871027  RH  023%=      5-min Rain = 0
KME1 132002Z 10006KT 19/M03 A3025 RMK A01 T01871026  RH  023%=      5-min Rain = 0
KME1 132003Z 10006KT 19/M02 A3025 RMK A01 T01921021  RH  023%=      5-min Rain = 0
KME1 132004Z 09005KT 19/M02 A3025 RMK A01 T01941024  RH  023%=      5-min Rain = 0
KME1 132005Z 05008KT 19/M03 A3025 RMK A01 T01921025  RH  023%=      5-min Rain = 0
KME1 132006Z 05008KT 19/M02 A3025 RMK A01 T01891024  RH  023%=      5-min Rain = 0
KME1 132007Z 07006KT 19/M03 A3025 RMK A01 T01871025  RH  024%=      5-min Rain = 0
KME1 132008Z 06007KT 19/M02 A3025 RMK A01 T01871023  RH  024%=      5-min Rain = 0
KME1 132009Z 06009KT 19/M02 A3025 RMK A01 T01881023  RH  024%=      5-min Rain = 0
KME1 132010Z 05008KT 19/M03 A3025 RMK A01 T01861026  RH  024%=      5-min Rain = 0
KME1 132011Z 05009KT 18/M03 A3025 RMK A01 T01841026  RH  024%=      5-min Rain = 0
KME1 132012Z 05011KT 19/M02 A3025 RMK A01 T01851024  RH  024%=      5-min Rain = 0
KME1 132013Z 05010KT 19/M03 A3025 RMK A01 T01851026  RH  024%=      5-min Rain = 0
KME1 132014Z 03006KT 18/M03 A3025 RMK A01 T01821030  RH  024%=      5-min Rain = 0
KME1 132015Z 05005KT 18/M03 A3025 RMK A01 T01811028  RH  024%=      5-min Rain = 0
KME1 132016Z 09006G11KT 18/M03 A3025 RMK A01 T01821027  RH  024%=      5-min Rain = 0
KME1 132017Z 07010KT 18/M03 A3025 RMK A01 T01831027  RH  024%=      5-min Rain = 0
KME1 132018Z 07008KT 18/M03 A3025 RMK A01 T01821028  RH  024%=      5-min Rain = 0
KME1 132019Z 07006KT 18/M03 A3025 RMK A01 T01811028  RH  024%=      5-min Rain = 0
KME1 132020Z 11006KT 18/M03 A3025 RMK A01 T01801028  RH  024%=      5-min Rain = 0
KME1 132021Z 09004KT 18/M03 A3025 RMK A01 T01791028  RH  024%=      5-min Rain = 0
KME1 132022Z 10002KT 18/M03 A3025 RMK A01 T01771030  RH  024%=      5-min Rain = 0
KME1 132023Z 12002KT 18/M03 A3024 RMK A01 T01771030  RH  024%=      5-min Rain = 0
KME1 132024Z 08003KT 18/M03 A3024 RMK A01 T01771029  RH  024%=      5-min Rain = 0
KME1 132025Z 08004KT 18/M03 A3024 RMK A01 T01771029  RH  024%=      5-min Rain = 0
KME1 132026Z 06004KT 18/M03 A3024 RMK A01 T01771028  RH  024%=      5-min Rain = 0
KME1 132027Z 09005KT 18/M03 A3024 RMK A01 T01781026  RH  025%=      5-min Rain = 0
KME1 132028Z 08004KT 18/M03 A3024 RMK A01 T01791027  RH  024%=      5-min Rain = 0
KME1 132029Z 08008KT 18/M03 A3024 RMK A01 T01801026  RH  024%=      5-min Rain = 0
KME1 132030Z 06008KT 18/M03 A3024 RMK A01 T01811026  RH  024%=      5-min Rain = 0
KME1 132031Z 07010KT 18/M03 A3024 RMK A01 T01801027  RH  024%=      5-min Rain = 0
KME1 132032Z 08009KT 18/M03 A3024 RMK A01 T01791026  RH  025%=      5-min Rain = 0
KME1 132033Z 09008KT 18/M03 A3024 RMK A01 T01801025  RH  025%=      5-min Rain = 0
KME1 132034Z 09008G13KT 18/M03 A3024 RMK A01 T01811025  RH  024%=      5-min Rain = 0
KME1 132035Z 10010KT 18/M03 A3024 RMK A01 T01811027  RH  024%=      5-min Rain = 0
KME1 132036Z 08008KT 18/M03 A3024 RMK A01 T01801025  RH  025%=      5-min Rain = 0
KME1 132037Z 08006KT 18/M03 A3024 RMK A01 T01811025  RH  024%=      5-min Rain = 0
KME1 132038Z 10006KT 18/M03 A3024 RMK A01 T01821026  RH  024%=      5-min Rain = 0
KME1 132039Z 09008KT 18/M03 A3024 RMK A01 T01821026  RH  024%=      5-min Rain = 0
KME1 132040Z 09008KT 18/M03 A3024 RMK A01 T01811026  RH  024%=      5-min Rain = 0
KME1 132041Z 09008KT 18/M03 A3024 RMK A01 T01811026  RH  024%=      5-min Rain = 0
KME1 132042Z 08008G13KT 18/M03 A3024 RMK A01 T01801026  RH  024%=      5-min Rain = 0
KME1 132043Z 07011KT 18/M03 A3024 RMK A01 T01791028  RH  024%=      5-min Rain = 0
KME1 132044Z 06008KT 18/M03 A3024 RMK A01 T01781029  RH  024%=      5-min Rain = 0
KME1 132045Z 07009KT 18/M03 A3024 RMK A01 T01771029  RH  024%=      5-min Rain = 0
KME1 132046Z 05007KT 18/M03 A3024 RMK A01 T01771029  RH  024%=      5-min Rain = 0
KME1 132047Z 05008KT 18/M03 A3024 RMK A01 T01771029  RH  024%=      5-min Rain = 0
KME1 132048Z 05009KT 18/M03 A3024 RMK A01 T01771029  RH  024%=      5-min Rain = 0
KME1 132049Z 07007KT 18/M03 A3024 RMK A01 T01781027  RH  024%=      5-min Rain = 0
KME1 132050Z 08011KT 18/M03 A3024 RMK A01 T01811026  RH  024%=      5-min Rain = 0
KME1 132051Z 07011KT 18/M03 A3024 RMK A01 T01821027  RH  024%=      5-min Rain = 0
KME1 132052Z 08011KT 18/M03 A3024 RMK A01 T01811028  RH  024%=      5-min Rain = 0
KME1 132053Z 07009KT 18/M03 A3024 RMK A01 T01811027  RH  024%=      5-min Rain = 0
KME1 132054Z 09008KT 18/M03 A3024 RMK A01 T01821027  RH  024%=      5-min Rain = 0
KME1 132055Z 09007KT 18/M03 A3024 RMK A01 T01821028  RH  024%=      5-min Rain = 0
KME1 132056Z 09005KT 18/M03 A3024 RMK A01 T01831027  RH  024%=      5-min Rain = 0
KME1 132057Z 09006KT 18/M03 A3024 RMK A01 T01841027  RH  024%=      5-min Rain = 0
KME1 132058Z 07005KT 18/M03 A3024 RMK A01 T01841027  RH  024%=      5-min Rain = 0
KME1 132059Z 06008G13KT 18/M03 A3024 RMK A01 T01841025  RH  024%=      5-min Rain = 0
KME1 132100Z 06011KT 19/M02 A3024 RMK A01 T01851024  RH  024%=      5-min Rain = 0
KME1 132101Z 06009KT 19/M03 A3024 RMK A01 T01851025  RH  024%=      5-min Rain = 0
KME1 132102Z 05009KT 19/M02 A3024 RMK A01 T01851024  RH  024%=      5-min Rain = 0
KME1 132103Z 05013KT 19/M03 A3024 RMK A01 T01851025  RH  024%=      5-min Rain = 0
KME1 132104Z 04013KT 18/M03 A3024 RMK A01 T01841026  RH  024%=      5-min Rain = 0
KME1 132105Z 04011KT 18/M03 A3024 RMK A01 T01821027  RH  024%=      5-min Rain = 0
KME1 132106Z 04008KT 18/M03 A3024 RMK A01 T01811027  RH  024%=      5-min Rain = 0
KME1 132107Z 05007KT 18/M03 A3024 RMK A01 T01811027  RH  024%=      5-min Rain = 0
KME1 132108Z 05008KT 18/M03 A3024 RMK A01 T01811025  RH  024%=      5-min Rain = 0
KME1 132109Z 06010KT 18/M03 A3024 RMK A01 T01831025  RH  024%=      5-min Rain = 0
KME1 132110Z 08008KT 18/M03 A3024 RMK A01 T01831026  RH  024%=      5-min Rain = 0
KME1 132111Z 09006KT 18/M03 A3024 RMK A01 T01831026  RH  024%=      5-min Rain = 0
KME1 132112Z 09007G12KT 18/M03 A3024 RMK A01 T01821028  RH  024%=      5-min Rain = 0
KME1 132113Z 07009KT 18/M03 A3024 RMK A01 T01811027  RH  024%=      5-min Rain = 0
KME1 132114Z 07008KT 18/M03 A3024 RMK A01 T01821026  RH  024%=      5-min Rain = 0
KME1 132115Z 09008KT 18/M03 A3024 RMK A01 T01841025  RH  024%=      5-min Rain = 0
KME1 132116Z 08011KT 19/M03 A3024 RMK A01 T01851027  RH  024%=      5-min Rain = 0
KME1 132117Z 08011KT 18/M03 A3024 RMK A01 T01831028  RH  024%=      5-min Rain = 0
KME1 132118Z 07010KT 18/M03 A3024 RMK A01 T01821029  RH  024%=      5-min Rain = 0
KME1 132119Z 06008KT 18/M03 A3024 RMK A01 T01801029  RH  024%=      5-min Rain = 0
KME1 132120Z 06006KT 18/M03 A3024 RMK A01 T01801029  RH  024%=      5-min Rain = 0
KME1 132121Z 06007KT 18/M03 A3024 RMK A01 T01801028  RH  024%=      5-min Rain = 0
KME1 132122Z 05008KT 18/M03 A3024 RMK A01 T01811028  RH  024%=      5-min Rain = 0
KME1 132123Z 05009KT 18/M03 A3024 RMK A01 T01811028  RH  024%=      5-min Rain = 0
KME1 132124Z 05010KT 18/M03 A3024 RMK A01 T01811028  RH  024%=      5-min Rain = 0
KME1 132125Z 05010KT 18/M03 A3024 RMK A01 T01811028  RH  024%=      5-min Rain = 0
KME1 132126Z 06009KT 18/M03 A3024 RMK A01 T01821028  RH  024%=      5-min Rain = 0
KME1 132127Z 06010KT 18/M03 A3024 RMK A01 T01831027  RH  024%=      5-min Rain = 0
KME1 132128Z 07008KT 18/M03 A3024 RMK A01 T01841028  RH  024%=      5-min Rain = 0
KME1 132129Z 05009KT 18/M03 A3024 RMK A01 T01841027  RH  024%=      5-min Rain = 0
KME1 132130Z 08010KT 19/M03 A3023 RMK A01 T01851026  RH  024%=      5-min Rain = 0
KME1 132131Z 06010KT 19/M03 A3023 RMK A01 T01851027  RH  024%=      5-min Rain = 0
KME1 132132Z 07009KT 19/M03 A3023 RMK A01 T01871025  RH  023%=      5-min Rain = 0
KME1 132133Z 07008KT 19/M03 A3023 RMK A01 T01881027  RH  023%=      5-min Rain = 0
KME1 132134Z 07012KT 19/M03 A3023 RMK A01 T01891028  RH  023%=      5-min Rain = 0
KME1 132135Z 06014KT 19/M03 A3023 RMK A01 T01881029  RH  023%=      5-min Rain = 0
KME1 132136Z 06012KT 19/M03 A3023 RMK A01 T01871029  RH  023%=      5-min Rain = 0
KME1 132137Z 05011KT 19/M03 A3023 RMK A01 T01881027  RH  023%=      5-min Rain = 0
KME1 132138Z 06014KT 19/M03 A3023 RMK A01 T01911026  RH  023%=      5-min Rain = 0
KME1 132139Z 05012KT 19/M03 A3023 RMK A01 T01921027  RH  023%=      5-min Rain = 0
KME1 132140Z 05009KT 19/M03 A3023 RMK A01 T01921027  RH  023%=      5-min Rain = 0
KME1 132141Z 06007KT 19/M03 A3023 RMK A01 T01921026  RH  023%=      5-min Rain = 0
KME1 132142Z 07008KT 19/M03 A3023 RMK A01 T01941026  RH  022%=      5-min Rain = 0
KME1 132143Z 07008KT 19/M03 A3023 RMK A01 T01921029  RH  022%=      5-min Rain = 0
KME1 132144Z 07009KT 19/M03 A3023 RMK A01 T01891030  RH  022%=      5-min Rain = 0
KME1 132145Z 08010KT 19/M03 A3023 RMK A01 T01891028  RH  023%=      5-min Rain = 0
KME1 132146Z 07006KT 19/M03 A3023 RMK A01 T01881029  RH  023%=      5-min Rain = 0
KME1 132147Z 08007KT 19/M03 A3023 RMK A01 T01881027  RH  023%=      5-min Rain = 0
KME1 132148Z 09009KT 19/M03 A3023 RMK A01 T01911026  RH  023%=      5-min Rain = 0
KME1 132149Z 09010KT 19/M03 A3023 RMK A01 T01891030  RH  022%=      5-min Rain = 0
KME1 132150Z 09009KT 19/M03 A3023 RMK A01 T01871030  RH  023%=      5-min Rain = 0
KME1 132151Z 08010KT 19/M03 A3023 RMK A01 T01861029  RH  023%=      5-min Rain = 0
KME1 132152Z 07013KT 19/M03 A3023 RMK A01 T01871029  RH  023%=      5-min Rain = 0
KME1 132153Z 06014KT 19/M03 A3023 RMK A01 T01861030  RH  023%=      5-min Rain = 0
KME1 132154Z 07011KT 19/M03 A3023 RMK A01 T01861030  RH  023%=      5-min Rain = 0
KME1 132155Z 06011KT 19/M03 A3023 RMK A01 T01851031  RH  023%=      5-min Rain = 0
KME1 132156Z 05013KT 18/M03 A3023 RMK A01 T01841030  RH  023%=      5-min Rain = 0
KME1 132157Z 05012KT 18/M03 A3023 RMK A01 T01841031  RH  023%=      5-min Rain = 0
KME1 132158Z 06012KT 18/M03 A3023 RMK A01 T01831031  RH  023%=      5-min Rain = 0
KME1 132159Z 06009KT 18/M03 A3023 RMK A01 T01841031  RH  023%=      5-min Rain = 0
KME1 132200Z 07009KT 19/M03 A3023 RMK A01 T01851030  RH  023%=      5-min Rain = 0
KME1 132201Z 06009KT 19/M03 A3023 RMK A01 T01871029  RH  023%=      5-min Rain = 0
KME1 132202Z 06011KT 19/M03 A3023 RMK A01 T01891028  RH  023%=      5-min Rain = 0
KME1 132203Z 05012KT 19/M03 A3023 RMK A01 T01901030  RH  022%=      5-min Rain = 0
KME1 132204Z 05010KT 19/M03 A3023 RMK A01 T01911029  RH  022%=      5-min Rain = 0
KME1 132205Z 04009KT 19/M03 A3023 RMK A01 T01931028  RH  022%=      5-min Rain = 0
KME1 132206Z 03008KT 19/M03 A3023 RMK A01 T01931030  RH  022%=      5-min Rain = 0
KME1 132207Z 03010G15KT 19/M03 A3023 RMK A01 T01911029  RH  022%=      5-min Rain = 0
KME1 132208Z 02010G15KT 19/M03 A3022 RMK A01 T01921030  RH  022%=      5-min Rain = 0
KME1 132209Z 03010KT 19/M03 A3023 RMK A01 T01901030  RH  022%=      5-min Rain = 0
KME1 132210Z 04014KT 19/M03 A3023 RMK A01 T01911029  RH  022%=      5-min Rain = 0
KME1 132211Z 06013KT 19/M03 A3023 RMK A01 T01931028  RH  022%=      5-min Rain = 0
KME1 132212Z 04011G17KT 19/M03 A3022 RMK A01 T01941029  RH  022%=      5-min Rain = 0
KME1 132213Z 05016KT 19/M03 A3022 RMK A01 T01931030  RH  022%=      5-min Rain = 0
KME1 132214Z 06013KT 19/M03 A3022 RMK A01 T01931029  RH  022%=      5-min Rain = 0
KME1 132215Z 07012KT 19/M03 A3022 RMK A01 T01941029  RH  022%=      5-min Rain = 0
KME1 132216Z 05011G16KT 19/M03 A3022 RMK A01 T01941028  RH  022%=      5-min Rain = 0
KME1 132217Z 07012G17KT 20/M03 A3022 RMK A01 T01961029  RH  022%=      5-min Rain = 0
KME1 132218Z 05012KT 19/M03 A3022 RMK A01 T01941030  RH  022%=      5-min Rain = 0
KME1 132219Z 04011KT 19/M03 A3022 RMK A01 T01941029  RH  022%=      5-min Rain = 0
KME1 132220Z 06009KT 20/M03 A3022 RMK A01 T01951029  RH  022%=      5-min Rain = 0
KME1 132221Z 05013G18KT 20/M03 A3022 RMK A01 T01981028  RH  022%=      5-min Rain = 0
KME1 132222Z 05013KT 20/M03 A3022 RMK A01 T01971032  RH  021%=      5-min Rain = 0
KME1 132223Z 07010KT 19/M03 A3022 RMK A01 T01941033  RH  021%=      5-min Rain = 0
KME1 132224Z 06010KT 19/M03 A3022 RMK A01 T01921034  RH  021%=      5-min Rain = 0
KME1 132225Z 05010KT 19/M03 A3022 RMK A01 T01911033  RH  022%=      5-min Rain = 0
KME1 132226Z 02010KT 19/M03 A3022 RMK A01 T01921032  RH  022%=      5-min Rain = 0
KME1 132227Z 05013G19KT 19/M03 A3021 RMK A01 T01921032  RH  022%=      5-min Rain = 0
KME1 132228Z 11013KT 19/M03 A3022 RMK A01 T01941032  RH  022%=      5-min Rain = 0
KME1 132229Z 11012KT 19/M03 A3022 RMK A01 T01921034  RH  021%=      5-min Rain = 0
KME1 132230Z 08011KT 19/M03 A3022 RMK A01 T01911034  RH  022%=      5-min Rain = 0
KME1 132231Z 06011KT 19/M03 A3022 RMK A01 T01921033  RH  021%=      5-min Rain = 0
KME1 132232Z 07008KT 19/M04 A3022 RMK A01 T01901037  RH  021%=      5-min Rain = 0
KME1 132233Z 08007KT 19/M04 A3022 RMK A01 T01901035  RH  022%=      5-min Rain = 0
KME1 132234Z 06010G15KT 19/M03 A3022 RMK A01 T01931032  RH  022%=      5-min Rain = 0
KME1 132235Z 08008G13KT 20/M03 A3022 RMK A01 T01951032  RH  021%=      5-min Rain = 0
KME1 132236Z 07007KT 20/M03 A3022 RMK A01 T01961032  RH  021%=      5-min Rain = 0
KME1 132237Z 05011KT 20/M03 A3022 RMK A01 T01971031  RH  021%=      5-min Rain = 0
KME1 132238Z 07012KT 20/M03 A3022 RMK A01 T01951034  RH  021%=      5-min Rain = 0
KME1 132239Z 05011KT 19/M03 A3022 RMK A01 T01921034  RH  021%=      5-min Rain = 0
KME1 132240Z 04008KT 19/M03 A3022 RMK A01 T01901034  RH  022%=      5-min Rain = 0
KME1 132241Z 04005KT 19/M03 A3021 RMK A01 T01891034  RH  022%=      5-min Rain = 0
KME1 132242Z 07008KT 19/M04 A3021 RMK A01 T01881035  RH  022%=      5-min Rain = 0
KME1 132243Z 06011KT 19/M04 A3021 RMK A01 T01871035  RH  022%=      5-min Rain = 0
KME1 132244Z 06010KT 19/M04 A3021 RMK A01 T01871035  RH  022%=      5-min Rain = 0
KME1 132245Z 07008KT 19/M04 A3021 RMK A01 T01861036  RH  022%=      5-min Rain = 0
KME1 132246Z 08012KT 19/M03 A3021 RMK A01 T01851034  RH  022%=      5-min Rain = 0
KME1 132247Z 06010KT 19/M03 A3021 RMK A01 T01861034  RH  022%=      5-min Rain = 0
KME1 132248Z 06008KT 19/M03 A3021 RMK A01 T01861034  RH  022%=      5-min Rain = 0
KME1 132249Z 08006KT 19/M03 A3021 RMK A01 T01861034  RH  022%=      5-min Rain = 0
KME1 132250Z 08008KT 19/M03 A3021 RMK A01 T01861033  RH  022%=      5-min Rain = 0
KME1 132251Z 08005KT 19/M03 A3021 RMK A01 T01861033  RH  022%=      5-min Rain = 0
KME1 132252Z 10007KT 19/M03 A3021 RMK A01 T01861034  RH  022%=      5-min Rain = 0
KME1 132253Z 10009G14KT 19/M03 A3021 RMK A01 T01861034  RH  022%=      5-min Rain = 0
KME1 132254Z 13007KT 19/M04 A3021 RMK A01 T01851036  RH  022%=      5-min Rain = 0
KME1 132255Z 10006KT 18/M04 A3021 RMK A01 T01841035  RH  022%=      5-min Rain = 0
KME1 132256Z 09010KT 19/M03 A3021 RMK A01 T01871033  RH  022%=      5-min Rain = 0
KME1 132257Z 08009KT 19/M03 A3022 RMK A01 T01881034  RH  022%=      5-min Rain = 0
KME1 132258Z 07010KT 19/M04 A3022 RMK A01 T01881035  RH  022%=      5-min Rain = 0
KME1 132259Z 08010KT 19/M04 A3022 RMK A01 T01861035  RH  022%=      5-min Rain = 0
KME1 132300Z 08011KT 19/M04 A3022 RMK A01 T01861035  RH  022%=      5-min Rain = 0
KME1 132301Z 09011KT 19/M04 A3022 RMK A01 T01861035  RH  022%=      5-min Rain = 0
KME1 132302Z 09009KT 19/M04 A3022 RMK A01 T01871035  RH  022%=      5-min Rain = 0
KME1 132303Z 08007KT 19/M04 A3022 RMK A01 T01871035  RH  022%=      5-min Rain = 0
KME1 132304Z 10009KT 19/M03 A3022 RMK A01 T01881033  RH  022%=      5-min Rain = 0
KME1 132305Z 10007KT 19/M03 A3022 RMK A01 T01891034  RH  022%=      5-min Rain = 0
KME1 132306Z 10005KT 19/M03 A3022 RMK A01 T01891034  RH  022%=      5-min Rain = 0
KME1 132307Z 10007G13KT 19/M03 A3022 RMK A01 T01881034  RH  022%=      5-min Rain = 0
KME1 132308Z 08011KT 19/M04 A3022 RMK A01 T01891035  RH  022%=      5-min Rain = 0
KME1 132309Z 08007KT 19/M04 A3022 RMK A01 T01881036  RH  022%=      5-min Rain = 0
KME1 132310Z 08007KT 19/M04 A3022 RMK A01 T01861037  RH  022%=      5-min Rain = 0
KME1 132311Z 09009G14KT 19/M04 A3022 RMK A01 T01851036  RH  022%=      5-min Rain = 0
KME1 132312Z 08010KT 19/M04 A3022 RMK A01 T01851037  RH  022%=      5-min Rain = 0
KME1 132313Z 07007KT 18/M04 A3022 RMK A01 T01841037  RH  022%=      5-min Rain = 0
KME1 132314Z 08007KT 19/M03 A3022 RMK A01 T01851034  RH  022%=      5-min Rain = 0
KME1 132315Z 08011KT 19/M04 A3022 RMK A01 T01871035  RH  022%=      5-min Rain = 0
KME1 132316Z 08010KT 19/M04 A3022 RMK A01 T01851037  RH  022%=      5-min Rain = 0
KME1 132317Z 07009KT 18/M04 A3022 RMK A01 T01831038  RH  022%=      5-min Rain = 0
KME1 132318Z 06011KT 18/M04 A3022 RMK A01 T01821037  RH  022%=      5-min Rain = 0
KME1 132319Z 08011KT 18/M04 A3022 RMK A01 T01821035  RH  022%=      5-min Rain = 0
KME1 132320Z 07012KT 18/M04 A3022 RMK A01 T01821035  RH  023%=      5-min Rain = 0
KME1 132321Z 07010KT 18/M04 A3022 RMK A01 T01811035  RH  023%=      5-min Rain = 0
KME1 132322Z 06009KT 18/M03 A3022 RMK A01 T01811034  RH  023%=      5-min Rain = 0
KME1 132323Z 05009KT 18/M03 A3022 RMK A01 T01811034  RH  023%=      5-min Rain = 0
KME1 132324Z 07009KT 18/M03 A3022 RMK A01 T01821034  RH  023%=      5-min Rain = 0
KME1 132325Z 06010KT 18/M03 A3022 RMK A01 T01831033  RH  023%=      5-min Rain = 0
KME1 132326Z 06013KT 18/M03 A3022 RMK A01 T01831033  RH  023%=      5-min Rain = 0
KME1 132327Z 06011KT 18/M04 A3022 RMK A01 T01821035  RH  023%=      5-min Rain = 0
KME1 132328Z 06008KT 18/M04 A3022 RMK A01 T01811035  RH  023%=      5-min Rain = 0
KME1 132329Z 06012KT 18/M03 A3022 RMK A01 T01811034  RH  023%=      5-min Rain = 0
KME1 132330Z 05014KT 18/M04 A3022 RMK A01 T01811035  RH  023%=      5-min Rain = 0
KME1 132331Z 07011KT 18/M04 A3022 RMK A01 T01801035  RH  023%=      5-min Rain = 0
KME1 132332Z 07006KT 18/M04 A3022 RMK A01 T01791035  RH  023%=      5-min Rain = 0
KME1 132333Z 08007KT 18/M03 A3022 RMK A01 T01801034  RH  023%=      5-min Rain = 0
KME1 132334Z 08007KT 18/M03 A3022 RMK A01 T01801034  RH  023%=      5-min Rain = 0
KME1 132335Z 06007KT 18/M03 A3022 RMK A01 T01801033  RH  023%=      5-min Rain = 0
KME1 132336Z 06010KT 18/M03 A3022 RMK A01 T01821033  RH  023%=      5-min Rain = 0
KME1 132337Z 07010KT 18/M03 A3022 RMK A01 T01821034  RH  023%=      5-min Rain = 0
KME1 132338Z 08009KT 18/M04 A3022 RMK A01 T01801036  RH  023%=      5-min Rain = 0
KME1 132339Z 08009KT 18/M04 A3022 RMK A01 T01771036  RH  023%=      5-min Rain = 0
KME1 132340Z 07008G13KT 18/M04 A3022 RMK A01 T01761036  RH  023%=      5-min Rain = 0
KME1 132341Z 07006KT 18/M04 A3022 RMK A01 T01761035  RH  023%=      5-min Rain = 0
KME1 132342Z 07007KT 18/M04 A3022 RMK A01 T01751036  RH  023%=      5-min Rain = 0
KME1 132343Z 06010KT 18/M04 A3022 RMK A01 T01751036  RH  023%=      5-min Rain = 0
KME1 132344Z 06009KT 17/M04 A3022 RMK A01 T01741037  RH  023%=      5-min Rain = 0
KME1 132345Z 07011KT 17/M04 A3022 RMK A01 T01731037  RH  024%=      5-min Rain = 0
KME1 132346Z 07008KT 17/M04 A3022 RMK A01 T01721037  RH  024%=      5-min Rain = 0
KME1 132347Z 10007KT 17/M04 A3022 RMK A01 T01731036  RH  024%=      5-min Rain = 0
KME1 132348Z 09008KT 17/M04 A3022 RMK A01 T01731035  RH  024%=      5-min Rain = 0
KME1 132349Z 10010KT 17/M04 A3022 RMK A01 T01741035  RH  024%=      5-min Rain = 0
KME1 132350Z 10008KT 17/M04 A3022 RMK A01 T01741035  RH  024%=      5-min Rain = 0
KME1 132351Z 09006KT 17/M04 A3022 RMK A01 T01741035  RH  024%=      5-min Rain = 0
KME1 132352Z 07007KT 18/M04 A3022 RMK A01 T01751035  RH  024%=      5-min Rain = 0
KME1 132353Z 06007KT 18/M03 A3022 RMK A01 T01751034  RH  024%=      5-min Rain = 0
KME1 132354Z 07010KT 18/M04 A3022 RMK A01 T01751036  RH  023%=      5-min Rain = 0
KME1 132355Z 08009KT 18/M04 A3022 RMK A01 T01761036  RH  023%=      5-min Rain = 0
KME1 132356Z 07009KT 18/M04 A3022 RMK A01 T01751036  RH  023%=      5-min Rain = 0
KME1 132357Z 08009KT 18/M04 A3022 RMK A01 T01751037  RH  023%=      5-min Rain = 0
KME1 132358Z 07008KT 17/M04 A3022 RMK A01 T01741036  RH  024%=      5-min Rain = 0
KME1 132359Z 07008KT 17/M04 A3022 RMK A01 T01741037  RH  023%=      5-min Rain = 0
KME1 140000Z 07008KT 17/M04 A3022 RMK A01 T01741037  RH  023%=      5-min Rain = 0
KME1 140001Z 08009KT 17/M04 A3023 RMK A01 T01741037  RH  023%=      5-min Rain = 0
KME1 140002Z 08009KT 17/M04 A3023 RMK A01 T01731037  RH  024%=      5-min Rain = 0
KME1 140003Z 09008KT 17/M04 A3023 RMK A01 T01731037  RH  024%=      5-min Rain = 0
KME1 140004Z 09008KT 17/M04 A3023 RMK A01 T01721037  RH  024%=      5-min Rain = 0
KME1 140005Z 08010KT 17/M04 A3023 RMK A01 T01721037  RH  024%=      5-min Rain = 0
KME1 140006Z 08010KT 17/M04 A3023 RMK A01 T01721037  RH  024%=      5-min Rain = 0
KME1 140007Z 09010KT 17/M04 A3023 RMK A01 T01711037  RH  024%=      5-min Rain = 0
KME1 140008Z 08010KT 17/M04 A3023 RMK A01 T01711037  RH  024%=      5-min Rain = 0
KME1 140009Z 09008KT 17/M04 A3023 RMK A01 T01711037  RH  024%=      5-min Rain = 0
KME1 140010Z 07007KT 17/M04 A3023 RMK A01 T01711037  RH  024%=      5-min Rain = 0
KME1 140011Z 09008KT 17/M04 A3023 RMK A01 T01701037  RH  024%=      5-min Rain = 0
KME1 140012Z 08009KT 17/M04 A3023 RMK A01 T01701037  RH  024%=      5-min Rain = 0
KME1 140013Z 08008KT 17/M04 A3023 RMK A01 T01691038  RH  024%=      5-min Rain = 0
KME1 140014Z 08007KT 17/M04 A3023 RMK A01 T01691038  RH  024%=      5-min Rain = 0
KME1 140015Z 07005KT 17/M04 A3023 RMK A01 T01691038  RH  024%=      5-min Rain = 0
KME1 140016Z 08007KT 17/M04 A3023 RMK A01 T01691038  RH  024%=      5-min Rain = 0
KME1 140017Z 08008KT 17/M04 A3023 RMK A01 T01681039  RH  024%=      5-min Rain = 0
KME1 140018Z 08010KT 17/M04 A3023 RMK A01 T01681039  RH  024%=      5-min Rain = 0
KME1 140019Z 08009KT 17/M04 A3023 RMK A01 T01681039  RH  024%=      5-min Rain = 0
KME1 140020Z 08009KT 17/M04 A3023 RMK A01 T01671040  RH  024%=      5-min Rain = 0
KME1 140021Z 08008KT 17/M04 A3022 RMK A01 T01671040  RH  024%=      5-min Rain = 0
KME1 140022Z 07007KT 17/M04 A3022 RMK A01 T01661040  RH  024%=      5-min Rain = 0
KME1 140023Z 08006KT 17/M04 A3023 RMK A01 T01661039  RH  024%=      5-min Rain = 0
KME1 140024Z 07008KT 17/M04 A3023 RMK A01 T01651040  RH  024%=      5-min Rain = 0
KME1 140025Z 07007KT 17/M04 A3023 RMK A01 T01651040  RH  024%=      5-min Rain = 0
KME1 140026Z 08006KT 16/M04 A3023 RMK A01 T01641040  RH  024%=      5-min Rain = 0
KME1 140027Z 07006KT 16/M04 A3023 RMK A01 T01641040  RH  024%=      5-min Rain = 0
KME1 140028Z 07006KT 16/M04 A3023 RMK A01 T01641040  RH  024%=      5-min Rain = 0
KME1 140029Z 07008KT 16/M04 A3023 RMK A01 T01631041  RH  024%=      5-min Rain = 0
KME1 140030Z 08007KT 16/M04 A3023 RMK A01 T01621041  RH  024%=      5-min Rain = 0
KME1 140031Z 08005KT 16/M04 A3023 RMK A01 T01621041  RH  024%=      5-min Rain = 0
KME1 140032Z 09008KT 16/M04 A3023 RMK A01 T01621041  RH  025%=      5-min Rain = 0
KME1 140033Z 08008KT 16/M04 A3023 RMK A01 T01611041  RH  025%=      5-min Rain = 0
KME1 140034Z 08007KT 16/M04 A3023 RMK A01 T01611041  RH  025%=      5-min Rain = 0
KME1 140035Z 08007KT 16/M04 A3024 RMK A01 T01611041  RH  025%=      5-min Rain = 0
KME1 140036Z 07006KT 16/M04 A3024 RMK A01 T01601041  RH  025%=      5-min Rain = 0
KME1 140037Z 07007KT 16/M04 A3024 RMK A01 T01601041  RH  025%=      5-min Rain = 0
KME1 140038Z 08009KT 16/M04 A3024 RMK A01 T01601041  RH  025%=      5-min Rain = 0
KME1 140039Z 06008KT 16/M04 A3024 RMK A01 T01601040  RH  025%=      5-min Rain = 0
KME1 140040Z 07008KT 16/M04 A3024 RMK A01 T01591041  RH  025%=      5-min Rain = 0
KME1 140041Z 08007KT 16/M04 A3024 RMK A01 T01591041  RH  025%=      5-min Rain = 0
KME1 140042Z 08007KT 16/M04 A3024 RMK A01 T01581041  RH  025%=      5-min Rain = 0
KME1 140043Z 08007KT 16/M04 A3024 RMK A01 T01571041  RH  025%=      5-min Rain = 0
KME1 140044Z 09006KT 16/M04 A3024 RMK A01 T01571042  RH  025%=      5-min Rain = 0
KME1 140045Z 08008KT 16/M04 A3024 RMK A01 T01561041  RH  025%=      5-min Rain = 0
KME1 140046Z 08007KT 16/M04 A3024 RMK A01 T01561041  RH  025%=      5-min Rain = 0
KME1 140047Z 08007KT 16/M04 A3024 RMK A01 T01561041  RH  026%=      5-min Rain = 0
KME1 140048Z 08006KT 16/M04 A3024 RMK A01 T01551042  RH  026%=      5-min Rain = 0
KME1 140049Z 08006KT 15/M04 A3024 RMK A01 T01541042  RH  026%=      5-min Rain = 0
KME1 140050Z 08006KT 15/M04 A3024 RMK A01 T01541042  RH  026%=      5-min Rain = 0
KME1 140051Z 09005KT 15/M04 A3024 RMK A01 T01531042  RH  026%=      5-min Rain = 0
KME1 140052Z 08007KT 15/M04 A3024 RMK A01 T01521042  RH  026%=      5-min Rain = 0
KME1 140053Z 08006KT 15/M04 A3024 RMK A01 T01511042  RH  026%=      5-min Rain = 0
KME1 140054Z 09005KT 15/M04 A3024 RMK A01 T01511042  RH  026%=      5-min Rain = 0
KME1 140055Z 08005KT 15/M04 A3024 RMK A01 T01511042  RH  026%=      5-min Rain = 0
KME1 140056Z 08006KT 15/M04 A3024 RMK A01 T01501042  RH  026%=      5-min Rain = 0
KME1 140057Z 08006KT 15/M04 A3024 RMK A01 T01491042  RH  026%=      5-min Rain = 0
KME1 140058Z 07005KT 15/M04 A3024 RMK A01 T01491042  RH  026%=      5-min Rain = 0
KME1 140059Z 08004KT 15/M04 A3025 RMK A01 T01491042  RH  026%=      5-min Rain = 0
KME1 140100Z 07005KT 15/M04 A3025 RMK A01 T01481042  RH  027%=      5-min Rain = 0
KME1 140101Z 07005KT 15/M04 A3025 RMK A01 T01461043  RH  027%=      5-min Rain = 0
KME1 140102Z 07004KT 15/M04 A3025 RMK A01 T01451043  RH  027%=      5-min Rain = 0
KME1 140103Z 08005KT 14/M04 A3025 RMK A01 T01441043  RH  027%=      5-min Rain = 0
KME1 140104Z 08005KT 14/M04 A3025 RMK A01 T01441043  RH  027%=      5-min Rain = 0
KME1 140105Z 08005KT 14/M04 A3025 RMK A01 T01441043  RH  027%=      5-min Rain = 0
KME1 140106Z 08005KT 14/M04 A3025 RMK A01 T01431043  RH  027%=      5-min Rain = 0
KME1 140107Z 08005KT 14/M04 A3025 RMK A01 T01431042  RH  027%=      5-min Rain = 0
KME1 140108Z 08004KT 14/M04 A3025 RMK A01 T01421042  RH  028%=      5-min Rain = 0
KME1 140109Z 08004KT 14/M04 A3025 RMK A01 T01411043  RH  028%=      5-min Rain = 0
KME1 140110Z 08005KT 14/M04 A3025 RMK A01 T01411043  RH  028%=      5-min Rain = 0
KME1 140111Z 08004KT 14/M04 A3025 RMK A01 T01401042  RH  028%=      5-min Rain = 0
KME1 140112Z 08005KT 14/M04 A3025 RMK A01 T01401042  RH  028%=      5-min Rain = 0
KME1 140113Z 08004KT 14/M04 A3025 RMK A01 T01391042  RH  028%=      5-min Rain = 0
KME1 140114Z 08005KT 14/M04 A3025 RMK A01 T01381043  RH  028%=      5-min Rain = 0
KME1 140115Z 08004KT 14/M04 A3025 RMK A01 T01381043  RH  028%=      5-min Rain = 0
KME1 140116Z 08004KT 14/M04 A3025 RMK A01 T01381042  RH  028%=      5-min Rain = 0
KME1 140117Z 08004KT 14/M04 A3025 RMK A01 T01371043  RH  029%=      5-min Rain = 0
KME1 140118Z 08004KT 14/M04 A3025 RMK A01 T01361043  RH  029%=      5-min Rain = 0
KME1 140119Z 08004KT 14/M04 A3025 RMK A01 T01361042  RH  029%=      5-min Rain = 0
KME1 140120Z 08004KT 14/M04 A3025 RMK A01 T01361042  RH  029%=      5-min Rain = 0
KME1 140121Z 08004KT 14/M04 A3025 RMK A01 T01351043  RH  029%=      5-min Rain = 0
KME1 140122Z 07004KT 13/M04 A3025 RMK A01 T01341043  RH  029%=      5-min Rain = 0
KME1 140123Z 07004KT 13/M04 A3025 RMK A01 T01331043  RH  029%=      5-min Rain = 0
KME1 140124Z 08004KT 13/M04 A3025 RMK A01 T01331043  RH  029%=      5-min Rain = 0
KME1 140125Z 07004KT 13/M04 A3025 RMK A01 T01331043  RH  029%=      5-min Rain = 0
KME1 140126Z 07004KT 13/M04 A3025 RMK A01 T01321043  RH  029%=      5-min Rain = 0
KME1 140127Z 08004KT 13/M04 A3026 RMK A01 T01311043  RH  029%=      5-min Rain = 0
KME1 140128Z 07004KT 13/M04 A3026 RMK A01 T01311043  RH  030%=      5-min Rain = 0
KME1 140129Z 07004KT 13/M04 A3026 RMK A01 T01311042  RH  030%=      5-min Rain = 0
KME1 140130Z 08004KT 13/M04 A3025 RMK A01 T01301043  RH  030%=      5-min Rain = 0
KME1 140131Z 07004KT 13/M04 A3025 RMK A01 T01291043  RH  030%=      5-min Rain = 0
KME1 140132Z 08003KT 13/M04 A3026 RMK A01 T01281043  RH  030%=      5-min Rain = 0
KME1 140133Z 08003KT 13/M04 A3026 RMK A01 T01281042  RH  030%=      5-min Rain = 0
KME1 140134Z 07004KT 13/M04 A3026 RMK A01 T01281042  RH  030%=      5-min Rain = 0
KME1 140135Z 07003KT 13/M04 A3026 RMK A01 T01281042  RH  030%=      5-min Rain = 0
KME1 140136Z 07003KT 13/M04 A3026 RMK A01 T01281042  RH  030%=      5-min Rain = 0
KME1 140137Z 08003KT 13/M04 A3026 RMK A01 T01281042  RH  030%=      5-min Rain = 0
KME1 140138Z 07004KT 13/M04 A3026 RMK A01 T01271042  RH  030%=      5-min Rain = 0
KME1 140139Z 07003KT 13/M04 A3026 RMK A01 T01271042  RH  031%=      5-min Rain = 0
KME1 140140Z 07003KT 13/M04 A3026 RMK A01 T01271042  RH  031%=      5-min Rain = 0
KME1 140141Z 07004KT 13/M04 A3026 RMK A01 T01261042  RH  031%=      5-min Rain = 0
KME1 140142Z 07004KT 13/M04 A3026 RMK A01 T01261042  RH  031%=      5-min Rain = 0
KME1 140143Z 07004KT 13/M04 A3026 RMK A01 T01251042  RH  031%=      5-min Rain = 0
KME1 140144Z 07004KT 13/M04 A3026 RMK A01 T01251042  RH  031%=      5-min Rain = 0
KME1 140145Z 07004KT 12/M04 A3026 RMK A01 T01241042  RH  031%=      5-min Rain = 0
KME1 140146Z 07003KT 12/M04 A3026 RMK A01 T01241042  RH  031%=      5-min Rain = 0
KME1 140147Z 07004KT 12/M04 A3026 RMK A01 T01231042  RH  031%=      5-min Rain = 0
KME1 140148Z 07004KT 12/M04 A3026 RMK A01 T01231042  RH  031%=      5-min Rain = 0
KME1 140149Z 07004KT 12/M04 A3026 RMK A01 T01231042  RH  031%=      5-min Rain = 0
KME1 140150Z 07004KT 12/M04 A3026 RMK A01 T01221042  RH  032%=      5-min Rain = 0
KME1 140151Z 07004KT 12/M04 A3026 RMK A01 T01211042  RH  032%=      5-min Rain = 0
KME1 140152Z 06003KT 12/M04 A3026 RMK A01 T01211042  RH  032%=      5-min Rain = 0
KME1 140153Z 06004KT 12/M04 A3026 RMK A01 T01211042  RH  032%=      5-min Rain = 0
KME1 140154Z 07004KT 12/M04 A3026 RMK A01 T01201043  RH  032%=      5-min Rain = 0
KME1 140155Z 06003KT 12/M04 A3026 RMK A01 T01191042  RH  032%=      5-min Rain = 0
KME1 140156Z 05003KT 12/M04 A3026 RMK A01 T01191043  RH  032%=      5-min Rain = 0
KME1 140157Z 06003KT 12/M04 A3026 RMK A01 T01181042  RH  032%=      5-min Rain = 0
KME1 140158Z 05003KT 12/M04 A3026 RMK A01 T01171043  RH  033%=      5-min Rain = 0
KME1 140159Z 05003KT 12/M04 A3026 RMK A01 T01161043  RH  033%=      5-min Rain = 0
KME1 140200Z 05003KT 12/M04 A3026 RMK A01 T01151043  RH  033%=      5-min Rain = 0
KME1 140201Z 05003KT 12/M04 A3026 RMK A01 T01161042  RH  033%=      5-min Rain = 0
KME1 140202Z 05002KT 12/M04 A3026 RMK A01 T01161043  RH  033%=      5-min Rain = 0
KME1 140203Z 04002KT 12/M04 A3026 RMK A01 T01161042  RH  033%=      5-min Rain = 0
KME1 140204Z 03002KT 12/M04 A3026 RMK A01 T01151042  RH  033%=      5-min Rain = 0
KME1 140205Z 02002KT 11/M04 A3026 RMK A01 T01141043  RH  033%=      5-min Rain = 0
KME1 140206Z 02002KT 11/M04 A3027 RMK A01 T01131043  RH  033%=      5-min Rain = 0
KME1 140207Z 02002KT 11/M04 A3027 RMK A01 T01121043  RH  033%=      5-min Rain = 0
KME1 140208Z 03003KT 11/M04 A3027 RMK A01 T01111043  RH  034%=      5-min Rain = 0
KME1 140209Z 03003KT 11/M04 A3027 RMK A01 T01101043  RH  034%=      5-min Rain = 0
KME1 140210Z 03003KT 11/M04 A3027 RMK A01 T01101043  RH  034%=      5-min Rain = 0
KME1 140211Z 03004KT 11/M04 A3027 RMK A01 T01101043  RH  034%=      5-min Rain = 0
KME1 140212Z 03004KT 11/M04 A3027 RMK A01 T01091043  RH  034%=      5-min Rain = 0
KME1 140213Z 04004KT 11/M04 A3027 RMK A01 T01081043  RH  034%=      5-min Rain = 0
KME1 140214Z 04004KT 11/M04 A3027 RMK A01 T01081043  RH  034%=      5-min Rain = 0
KME1 140215Z 04004KT 11/M04 A3027 RMK A01 T01081042  RH  035%=      5-min Rain = 0
KME1 140216Z 05004KT 11/M04 A3027 RMK A01 T01071042  RH  035%=      5-min Rain = 0
KME1 140217Z 05003KT 11/M04 A3027 RMK A01 T01071042  RH  035%=      5-min Rain = 0
KME1 140218Z 06004KT 11/M04 A3027 RMK A01 T01061042  RH  035%=      5-min Rain = 0
KME1 140219Z 05003KT 11/M04 A3027 RMK A01 T01071042  RH  035%=      5-min Rain = 0
KME1 140220Z 05003KT 11/M04 A3027 RMK A01 T01071042  RH  035%=      5-min Rain = 0
KME1 140221Z 05002KT 11/M04 A3027 RMK A01 T01081042  RH  035%=      5-min Rain = 0
KME1 140222Z 05003KT 11/M04 A3027 RMK A01 T01081041  RH  035%=      5-min Rain = 0
KME1 140223Z 04002KT 11/M04 A3027 RMK A01 T01081042  RH  035%=      5-min Rain = 0
KME1 140224Z 04003KT 11/M04 A3027 RMK A01 T01081042  RH  035%=      5-min Rain = 0
KME1 140225Z 05003KT 11/M04 A3027 RMK A01 T01081042  RH  035%=      5-min Rain = 0
KME1 140226Z 05003KT 11/M04 A3027 RMK A01 T01081041  RH  035%=      5-min Rain = 0
KME1 140227Z 04002KT 11/M04 A3027 RMK A01 T01081042  RH  035%=      5-min Rain = 0
KME1 140228Z 04002KT 11/M04 A3027 RMK A01 T01081041  RH  035%=      5-min Rain = 0
KME1 140229Z 05002KT 11/M04 A3027 RMK A01 T01081041  RH  035%=      5-min Rain = 0
KME1 140230Z 04002KT 11/M04 A3027 RMK A01 T01071042  RH  035%=      5-min Rain = 0
KME1 140231Z 03002KT 11/M04 A3027 RMK A01 T01081041  RH  035%=      5-min Rain = 0
KME1 140232Z 03002KT 11/M04 A3027 RMK A01 T01071042  RH  035%=      5-min Rain = 0
KME1 140233Z 04002KT 11/M04 A3027 RMK A01 T01071042  RH  035%=      5-min Rain = 0
KME1 140234Z 05002KT 11/M04 A3027 RMK A01 T01081041  RH  035%=      5-min Rain = 0
KME1 140235Z 05001KT 11/M04 A3027 RMK A01 T01071042  RH  035%=      5-min Rain = 0
KME1 140236Z 04002KT 11/M04 A3027 RMK A01 T01071041  RH  035%=      5-min Rain = 0
KME1 140237Z 04002KT 11/M04 A3027 RMK A01 T01081041  RH  035%=      5-min Rain = 0
KME1 140238Z 04002KT 11/M04 A3027 RMK A01 T01091041  RH  035%=      5-min Rain = 0
KME1 140239Z 03002KT 11/M04 A3027 RMK A01 T01081041  RH  035%=      5-min Rain = 0
KME1 140240Z 02002KT 11/M04 A3027 RMK A01 T01071041  RH  035%=      5-min Rain = 0
KME1 140241Z 03003KT 11/M04 A3027 RMK A01 T01071042  RH  035%=      5-min Rain = 0
KME1 140242Z 03003KT 11/M04 A3027 RMK A01 T01061042  RH  035%=      5-min Rain = 0
KME1 140243Z 03003KT 11/M04 A3028 RMK A01 T01051042  RH  035%=      5-min Rain = 0
KME1 140244Z 03003KT 10/M04 A3028 RMK A01 T01041042  RH  036%=      5-min Rain = 0
KME1 140245Z 03002KT 10/M04 A3028 RMK A01 T01031042  RH  036%=      5-min Rain = 0
KME1 140246Z 03002KT 10/M04 A3028 RMK A01 T01031041  RH  036%=      5-min Rain = 0
KME1 140247Z 02002KT 10/M04 A3028 RMK A01 T01021041  RH  036%=      5-min Rain = 0
KME1 140248Z 02002KT 10/M04 A3028 RMK A01 T01021041  RH  036%=      5-min Rain = 0
KME1 140249Z 03002KT 10/M04 A3028 RMK A01 T01021041  RH  036%=      5-min Rain = 0
KME1 140250Z 03002KT 10/M04 A3028 RMK A01 T01021041  RH  036%=      5-min Rain = 0
KME1 140251Z 03002KT 10/M04 A3028 RMK A01 T01011041  RH  036%=      5-min Rain = 0
KME1 140252Z 01002KT 10/M04 A3028 RMK A01 T01021041  RH  036%=      5-min Rain = 0
KME1 140253Z 02002KT 10/M04 A3028 RMK A01 T01031040  RH  036%=      5-min Rain = 0
KME1 140254Z 02002KT 10/M04 A3028 RMK A01 T01041040  RH  036%=      5-min Rain = 0
KME1 140255Z 02002KT 10/M04 A3028 RMK A01 T01041040  RH  036%=      5-min Rain = 0
KME1 140256Z 02002KT 10/M04 A3028 RMK A01 T01041041  RH  036%=      5-min Rain = 0
KME1 140257Z 02002KT 10/M04 A3028 RMK A01 T01041041  RH  036%=      5-min Rain = 0
KME1 140258Z 02002KT 10/M04 A3028 RMK A01 T01041041  RH  036%=      5-min Rain = 0
KME1 140259Z 01003KT 10/M04 A3028 RMK A01 T01021041  RH  036%=      5-min Rain = 0
KME1 140300Z 02003KT 10/M04 A3029 RMK A01 T01011041  RH  037%=      5-min Rain = 0
KME1 140301Z 01003KT 10/M04 A3029 RMK A01 T01011041  RH  037%=      5-min Rain = 0
KME1 140302Z 01003KT 10/M04 A3029 RMK A01 T01011041  RH  037%=      5-min Rain = 0
KME1 140303Z 01003KT 10/M04 A3029 RMK A01 T01011040  RH  037%=      5-min Rain = 0
KME1 140304Z 01003KT 10/M04 A3029 RMK A01 T01001041  RH  037%=      5-min Rain = 0
KME1 140305Z 01004KT 10/M04 A3029 RMK A01 T00991041  RH  037%=      5-min Rain = 0
KME1 140306Z 01004KT 10/M04 A3028 RMK A01 T00981041  RH  037%=      5-min Rain = 0
KME1 140307Z 00004KT 10/M04 A3028 RMK A01 T00971041  RH  038%=      5-min Rain = 0
KME1 140308Z 00005KT 10/M04 A3029 RMK A01 T00961041  RH  038%=      5-min Rain = 0
KME1 140309Z 00006KT 09/M04 A3029 RMK A01 T00941041  RH  038%=      5-min Rain = 0
KME1 140310Z 00007KT 09/M04 A3029 RMK A01 T00911041  RH  039%=      5-min Rain = 0
KME1 140311Z 01006KT 09/M04 A3029 RMK A01 T00871042  RH  040%=      5-min Rain = 0
KME1 140312Z 01006KT 08/M04 A3029 RMK A01 T00841042  RH  041%=      5-min Rain = 0
KME1 140313Z 01006KT 08/M04 A3029 RMK A01 T00821042  RH  041%=      5-min Rain = 0
KME1 140314Z 01006KT 08/M04 A3029 RMK A01 T00811042  RH  042%=      5-min Rain = 0
KME1 140315Z 01006KT 08/M04 A3029 RMK A01 T00801042  RH  042%=      5-min Rain = 0
KME1 140316Z 04005KT 08/M04 A3029 RMK A01 T00791042  RH  042%=      5-min Rain = 0
KME1 140317Z 05005KT 08/M04 A3029 RMK A01 T00791042  RH  042%=      5-min Rain = 0
KME1 140318Z 05005KT 08/M04 A3029 RMK A01 T00811041  RH  042%=      5-min Rain = 0
KME1 140319Z 05005KT 09/M04 A3029 RMK A01 T00851040  RH  041%=      5-min Rain = 0
KME1 140320Z 04005KT 09/M04 A3029 RMK A01 T00871040  RH  040%=      5-min Rain = 0
KME1 140321Z 03005KT 09/M04 A3029 RMK A01 T00881040  RH  040%=      5-min Rain = 0
KME1 140322Z 04005KT 09/M04 A3029 RMK A01 T00881040  RH  040%=      5-min Rain = 0
KME1 140323Z 04004KT 09/M04 A3029 RMK A01 T00871041  RH  040%=      5-min Rain = 0
KME1 140324Z 04004KT 09/M04 A3029 RMK A01 T00851041  RH  041%=      5-min Rain = 0
KME1 140325Z 04004KT 08/M04 A303 RMK A01 T00841041  RH  041%=      5-min Rain = 0
KME1 140326Z 05004KT 08/M04 A303 RMK A01 T00841041  RH  041%=      5-min Rain = 0
KME1 140327Z 05004KT 09/M04 A303 RMK A01 T00851041  RH  041%=      5-min Rain = 0
KME1 140328Z 05003KT 09/M04 A303 RMK A01 T00861040  RH  041%=      5-min Rain = 0
KME1 140329Z 04004KT 09/M04 A303 RMK A01 T00861040  RH  041%=      5-min Rain = 0
KME1 140330Z 04003KT 09/M04 A303 RMK A01 T00871040  RH  040%=      5-min Rain = 0
KME1 140331Z 04004KT 09/M04 A303 RMK A01 T00881040  RH  040%=      5-min Rain = 0
KME1 140332Z 03003KT 09/M04 A303 RMK A01 T00881040  RH  040%=      5-min Rain = 0
KME1 140333Z 03003KT 09/M04 A303 RMK A01 T00881040  RH  040%=      5-min Rain = 0
KME1 140334Z 03003KT 09/M04 A303 RMK A01 T00881039  RH  040%=      5-min Rain = 0
KME1 140335Z 03004KT 09/M04 A303 RMK A01 T00881040  RH  040%=      5-min Rain = 0
KME1 140336Z 03004KT 09/M04 A303 RMK A01 T00881039  RH  040%=      5-min Rain = 0
KME1 140337Z 03004KT 09/M04 A303 RMK A01 T00891039  RH  040%=      5-min Rain = 0
KME1 140338Z 03004KT 09/M04 A303 RMK A01 T00891039  RH  040%=      5-min Rain = 0
KME1 140339Z 03004KT 09/M04 A303 RMK A01 T00891039  RH  040%=      5-min Rain = 0
KME1 140340Z 03004KT 09/M04 A303 RMK A01 T00891039  RH  040%=      5-min Rain = 0
KME1 140341Z 03003KT 09/M04 A303 RMK A01 T00891038  RH  040%=      5-min Rain = 0
KME1 140342Z 03003KT 09/M04 A303 RMK A01 T00891038  RH  040%=      5-min Rain = 0
KME1 140343Z 02003KT 09/M04 A303 RMK A01 T00891038  RH  041%=      5-min Rain = 0
KME1 140344Z 02003KT 09/M04 A303 RMK A01 T00891038  RH  041%=      5-min Rain = 0
KME1 140345Z 02003KT 09/M04 A303 RMK A01 T00891038  RH  041%=      5-min Rain = 0
KME1 140346Z 03003KT 09/M04 A3031 RMK A01 T00901038  RH  040%=      5-min Rain = 0
KME1 140347Z 02003KT 09/M04 A3031 RMK A01 T00901037  RH  040%=      5-min Rain = 0
KME1 140348Z 03003KT 09/M04 A3031 RMK A01 T00911037  RH  040%=      5-min Rain = 0
KME1 140349Z 02003KT 09/M04 A3031 RMK A01 T00921037  RH  040%=      5-min Rain = 0
KME1 140350Z 02002KT 09/M04 A3031 RMK A01 T00921037  RH  040%=      5-min Rain = 0
KME1 140351Z 03003KT 09/M04 A3031 RMK A01 T00931037  RH  040%=      5-min Rain = 0
KME1 140352Z 03002KT 09/M04 A3031 RMK A01 T00931037  RH  040%=      5-min Rain = 0
KME1 140353Z 04003KT 09/M04 A3031 RMK A01 T00921038  RH  040%=      5-min Rain = 0
KME1 140354Z 04004KT 09/M04 A3031 RMK A01 T00921037  RH  040%=      5-min Rain = 0
KME1 140355Z 05003KT 09/M04 A3031 RMK A01 T00911038  RH  040%=      5-min Rain = 0
KME1 140356Z 05003KT 09/M04 A3031 RMK A01 T00911038  RH  040%=      5-min Rain = 0
KME1 140357Z 05004KT 09/M04 A3031 RMK A01 T00901038  RH  040%=      5-min Rain = 0
KME1 140358Z 06004KT 09/M04 A3031 RMK A01 T00891038  RH  041%=      5-min Rain = 0
KME1 140359Z 06004KT 09/M04 A3031 RMK A01 T00881038  RH  041%=      5-min Rain = 0
KME1 140400Z 06004KT 09/M04 A3031 RMK A01 T00881038  RH  041%=      5-min Rain = 0
KME1 140401Z 05004KT 09/M04 A3031 RMK A01 T00881037  RH  041%=      5-min Rain = 0
KME1 140402Z 06005KT 09/M04 A3031 RMK A01 T00881037  RH  041%=      5-min Rain = 0
KME1 140403Z 06005KT 09/M04 A3031 RMK A01 T00891037  RH  041%=      5-min Rain = 0
KME1 140404Z 06004KT 09/M04 A3031 RMK A01 T00891037  RH  041%=      5-min Rain = 0
KME1 140405Z 06005KT 09/M04 A3031 RMK A01 T00891037  RH  041%=      5-min Rain = 0
KME1 140406Z 06005KT 09/M04 A3031 RMK A01 T00891036  RH  041%=      5-min Rain = 0
KME1 140407Z 06005KT 09/M04 A3031 RMK A01 T00911035  RH  041%=      5-min Rain = 0
KME1 140408Z 06005KT 10/M03 A3031 RMK A01 T00951034  RH  040%=      5-min Rain = 0
KME1 140409Z 07005KT 10/M03 A3031 RMK A01 T00971033  RH  040%=      5-min Rain = 0
KME1 140410Z 07004KT 10/M03 A3031 RMK A01 T00991034  RH  039%=      5-min Rain = 0
KME1 140411Z 06005KT 10/M03 A3031 RMK A01 T01001034  RH  039%=      5-min Rain = 0
KME1 140412Z 07006KT 10/M04 A3031 RMK A01 T01011035  RH  038%=      5-min Rain = 0
KME1 140413Z 07004KT 10/M03 A3031 RMK A01 T01031034  RH  038%=      5-min Rain = 0
KME1 140414Z 07005KT 10/M04 A3031 RMK A01 T01031035  RH  038%=      5-min Rain = 0
KME1 140415Z 07005KT 10/M04 A3031 RMK A01 T01031035  RH  038%=      5-min Rain = 0
KME1 140416Z 07006KT 10/M04 A3031 RMK A01 T01041036  RH  037%=      5-min Rain = 0
KME1 140417Z 07005KT 11/M04 A3031 RMK A01 T01051036  RH  037%=      5-min Rain = 0
KME1 140418Z 07006KT 11/M04 A3031 RMK A01 T01061036  RH  037%=      5-min Rain = 0
KME1 140419Z 07006KT 11/M04 A3031 RMK A01 T01081036  RH  036%=      5-min Rain = 0
KME1 140420Z 07006KT 11/M04 A3031 RMK A01 T01081037  RH  036%=      5-min Rain = 0
KME1 140421Z 07006KT 11/M04 A3031 RMK A01 T01091037  RH  036%=      5-min Rain = 0
KME1 140422Z 07006KT 11/M04 A3031 RMK A01 T01091037  RH  036%=      5-min Rain = 0
KME1 140423Z 07006KT 11/M04 A3031 RMK A01 T01091037  RH  036%=      5-min Rain = 0
KME1 140424Z 07006KT 11/M04 A3031 RMK A01 T01091037  RH  036%=      5-min Rain = 0
KME1 140425Z 08009KT 11/M04 A3031 RMK A01 T01091038  RH  035%=      5-min Rain = 0
KME1 140426Z 08007KT 11/M04 A3031 RMK A01 T01101038  RH  035%=      5-min Rain = 0
KME1 140427Z 08009KT 11/M04 A3031 RMK A01 T01111038  RH  035%=      5-min Rain = 0
KME1 140428Z 08008KT 11/M04 A3031 RMK A01 T01111038  RH  035%=      5-min Rain = 0
KME1 140429Z 08007KT 11/M04 A3031 RMK A01 T01111038  RH  035%=      5-min Rain = 0
KME1 140430Z 08006KT 11/M04 A3031 RMK A01 T01111038  RH  035%=      5-min Rain = 0
KME1 140431Z 07006KT 11/M04 A3031 RMK A01 T01111038  RH  035%=      5-min Rain = 0
KME1 140432Z 07006KT 11/M04 A3031 RMK A01 T01101039  RH  035%=      5-min Rain = 0
KME1 140433Z 08007KT 11/M04 A3031 RMK A01 T01101039  RH  035%=      5-min Rain = 0
KME1 140434Z 07007KT 11/M04 A3031 RMK A01 T01101039  RH  035%=      5-min Rain = 0
KME1 140435Z 07007KT 11/M04 A3031 RMK A01 T01101039  RH  035%=      5-min Rain = 0
KME1 140436Z 07007KT 11/M04 A3031 RMK A01 T01101039  RH  035%=      5-min Rain = 0
KME1 140437Z 07007KT 11/M04 A3031 RMK A01 T01101039  RH  035%=      5-min Rain = 0
KME1 140438Z 08006KT 11/M04 A3031 RMK A01 T01101039  RH  035%=      5-min Rain = 0
KME1 140439Z 07006KT 11/M04 A3031 RMK A01 T01091039  RH  035%=      5-min Rain = 0
KME1 140440Z 07005KT 11/M04 A3031 RMK A01 T01081040  RH  035%=      5-min Rain = 0
KME1 140441Z 07007KT 11/M04 A3031 RMK A01 T01081039  RH  035%=      5-min Rain = 0
KME1 140442Z 07007KT 11/M04 A3031 RMK A01 T01071040  RH  035%=      5-min Rain = 0
KME1 140443Z 07007KT 11/M04 A3031 RMK A01 T01081040  RH  035%=      5-min Rain = 0
KME1 140444Z 07007KT 11/M04 A303 RMK A01 T01081040  RH  035%=      5-min Rain = 0
KME1 140445Z 07007KT 11/M04 A3031 RMK A01 T01081039  RH  035%=      5-min Rain = 0
KME1 140446Z 07008KT 11/M04 A303 RMK A01 T01081040  RH  035%=      5-min Rain = 0
KME1 140447Z 07009KT 11/M04 A3031 RMK A01 T01081040  RH  035%=      5-min Rain = 0
KME1 140448Z 07005KT 11/M04 A3031 RMK A01 T01081040  RH  035%=      5-min Rain = 0
KME1 140449Z 08007KT 11/M04 A3031 RMK A01 T01081040  RH  035%=      5-min Rain = 0
KME1 140450Z 07005KT 11/M04 A3031 RMK A01 T01081040  RH  035%=      5-min Rain = 0
KME1 140451Z 08008KT 11/M04 A3031 RMK A01 T01071040  RH  035%=      5-min Rain = 0
KME1 140452Z 08007KT 11/M04 A3031 RMK A01 T01071040  RH  035%=      5-min Rain = 0
KME1 140453Z 07006KT 11/M04 A3031 RMK A01 T01071040  RH  035%=      5-min Rain = 0
KME1 140454Z 07006KT 11/M04 A3031 RMK A01 T01071041  RH  035%=      5-min Rain = 0
KME1 140455Z 07005KT 11/M04 A3031 RMK A01 T01061041  RH  035%=      5-min Rain = 0
KME1 140456Z 07008KT 11/M04 A3031 RMK A01 T01051041  RH  035%=      5-min Rain = 0
KME1 140457Z 07007KT 11/M04 A3031 RMK A01 T01051041  RH  036%=      5-min Rain = 0
KME1 140458Z 06006KT 11/M04 A3031 RMK A01 T01051041  RH  036%=      5-min Rain = 0
KME1 140459Z 07009KT 11/M04 A3032 RMK A01 T01051041  RH  036%=      5-min Rain = 0

Page generated in 0.1866 seconds.